﻿<?xml version="1.0" encoding="UTF-8" standalone="no" ?>
<gpx xmlns="http://www.topografix.com/GPX/1/1" creator="CompeGPS" version="1.1" xmlns:xsi="http://www.w3.org/2001/XMLSchema-instance" xsi:schemaLocation="http://www.topografix.com/GPX/1/1 http://www.topografix.com/GPX/1/1/gpx.xsd http://www.garmin.com/xmlschemas/GpxExtensions/v3 http://www.garmin.com/xmlschemas/GpxExtensionsv3.xsd http://www.garmin.com/xmlschemas/TrackPointExtension/v1 http://www.garmin.com/xmlschemas/TrackPointExtensionv1.xsd" xmlns:gpxtpx="http://www.garmin.com/xmlschemas/TrackPointExtension/v1">
  <metadata>
    <link href="http://www.compegps.com">
      <text>CompeGPS TEAM, SL</text>
    </link>
    <time>2014-04-14T16:58:42Z</time>
    <bounds maxlat="43.427964" maxlon="2.464502" minlat="43.398569" minlon="2.425042"/>
  </metadata>
  <trk>
    <name>pic de nore</name>
    <trkseg>
      <trkpt lat="43.407461" lon="2.446154">
        <ele>813.9</ele>
        <time>2014-04-10T14:03:27Z</time>
      </trkpt>
      <trkpt lat="43.407550" lon="2.446088">
        <ele>813.8</ele>
        <time>2014-04-10T14:04:04Z</time>
      </trkpt>
      <trkpt lat="43.407587" lon="2.446054">
        <ele>814.5</ele>
        <time>2014-04-10T14:05:14Z</time>
      </trkpt>
      <trkpt lat="43.407605" lon="2.446015">
        <ele>815.0</ele>
        <time>2014-04-10T14:08:20Z</time>
      </trkpt>
      <trkpt lat="43.407642" lon="2.446151">
        <ele>815.0</ele>
        <time>2014-04-10T14:08:28Z</time>
      </trkpt>
      <trkpt lat="43.407669" lon="2.446264">
        <ele>815.7</ele>
        <time>2014-04-10T14:08:35Z</time>
      </trkpt>
      <trkpt lat="43.407696" lon="2.446384">
        <ele>816.6</ele>
        <time>2014-04-10T14:08:43Z</time>
      </trkpt>
      <trkpt lat="43.407709" lon="2.446524">
        <ele>817.0</ele>
        <time>2014-04-10T14:08:51Z</time>
      </trkpt>
      <trkpt lat="43.407700" lon="2.446649">
        <ele>816.5</ele>
        <time>2014-04-10T14:09:00Z</time>
      </trkpt>
      <trkpt lat="43.407644" lon="2.446755">
        <ele>815.6</ele>
        <time>2014-04-10T14:09:08Z</time>
      </trkpt>
      <trkpt lat="43.407612" lon="2.446889">
        <ele>814.5</ele>
        <time>2014-04-10T14:09:18Z</time>
      </trkpt>
      <trkpt lat="43.407532" lon="2.446990">
        <ele>813.3</ele>
        <time>2014-04-10T14:09:26Z</time>
      </trkpt>
      <trkpt lat="43.407448" lon="2.447119">
        <ele>812.2</ele>
        <time>2014-04-10T14:09:35Z</time>
      </trkpt>
      <trkpt lat="43.407387" lon="2.447209">
        <ele>811.6</ele>
        <time>2014-04-10T14:09:47Z</time>
      </trkpt>
      <trkpt lat="43.407267" lon="2.447242">
        <ele>811.1</ele>
        <time>2014-04-10T14:09:57Z</time>
      </trkpt>
      <trkpt lat="43.407153" lon="2.447269">
        <ele>810.7</ele>
        <time>2014-04-10T14:10:06Z</time>
      </trkpt>
      <trkpt lat="43.407025" lon="2.447347">
        <ele>809.7</ele>
        <time>2014-04-10T14:10:17Z</time>
      </trkpt>
      <trkpt lat="43.406896" lon="2.447400">
        <ele>808.9</ele>
        <time>2014-04-10T14:10:26Z</time>
      </trkpt>
      <trkpt lat="43.406786" lon="2.447442">
        <ele>807.8</ele>
        <time>2014-04-10T14:10:36Z</time>
      </trkpt>
      <trkpt lat="43.406675" lon="2.447475">
        <ele>806.8</ele>
        <time>2014-04-10T14:11:06Z</time>
      </trkpt>
      <trkpt lat="43.406586" lon="2.447494">
        <ele>806.2</ele>
        <time>2014-04-10T14:11:15Z</time>
      </trkpt>
      <trkpt lat="43.406488" lon="2.447527">
        <ele>805.7</ele>
        <time>2014-04-10T14:11:24Z</time>
      </trkpt>
      <trkpt lat="43.406391" lon="2.447568">
        <ele>804.8</ele>
        <time>2014-04-10T14:11:32Z</time>
      </trkpt>
      <trkpt lat="43.406290" lon="2.447620">
        <ele>804.1</ele>
        <time>2014-04-10T14:11:40Z</time>
      </trkpt>
      <trkpt lat="43.406181" lon="2.447663">
        <ele>803.4</ele>
        <time>2014-04-10T14:11:49Z</time>
      </trkpt>
      <trkpt lat="43.406099" lon="2.447702">
        <ele>802.8</ele>
        <time>2014-04-10T14:11:57Z</time>
      </trkpt>
      <trkpt lat="43.406003" lon="2.447756">
        <ele>802.0</ele>
        <time>2014-04-10T14:12:09Z</time>
      </trkpt>
      <trkpt lat="43.405896" lon="2.447811">
        <ele>801.2</ele>
        <time>2014-04-10T14:12:19Z</time>
      </trkpt>
      <trkpt lat="43.405790" lon="2.447896">
        <ele>800.2</ele>
        <time>2014-04-10T14:12:28Z</time>
      </trkpt>
      <trkpt lat="43.405693" lon="2.448005">
        <ele>799.1</ele>
        <time>2014-04-10T14:12:37Z</time>
      </trkpt>
      <trkpt lat="43.405566" lon="2.448087">
        <ele>797.9</ele>
        <time>2014-04-10T14:12:47Z</time>
      </trkpt>
      <trkpt lat="43.405460" lon="2.448151">
        <ele>796.8</ele>
        <time>2014-04-10T14:12:56Z</time>
      </trkpt>
      <trkpt lat="43.405348" lon="2.448215">
        <ele>796.0</ele>
        <time>2014-04-10T14:13:05Z</time>
      </trkpt>
      <trkpt lat="43.405257" lon="2.448313">
        <ele>795.5</ele>
        <time>2014-04-10T14:13:11Z</time>
      </trkpt>
      <trkpt lat="43.405178" lon="2.448385">
        <ele>795.2</ele>
        <time>2014-04-10T14:13:20Z</time>
      </trkpt>
      <trkpt lat="43.405100" lon="2.448473">
        <ele>794.8</ele>
        <time>2014-04-10T14:13:30Z</time>
      </trkpt>
      <trkpt lat="43.404985" lon="2.448587">
        <ele>794.4</ele>
        <time>2014-04-10T14:13:39Z</time>
      </trkpt>
      <trkpt lat="43.404910" lon="2.448744">
        <ele>793.6</ele>
        <time>2014-04-10T14:13:50Z</time>
      </trkpt>
      <trkpt lat="43.404821" lon="2.448898">
        <ele>793.0</ele>
        <time>2014-04-10T14:13:59Z</time>
      </trkpt>
      <trkpt lat="43.404726" lon="2.449096">
        <ele>792.8</ele>
        <time>2014-04-10T14:14:08Z</time>
      </trkpt>
      <trkpt lat="43.404643" lon="2.449259">
        <ele>792.7</ele>
        <time>2014-04-10T14:14:17Z</time>
      </trkpt>
      <trkpt lat="43.404572" lon="2.449364">
        <ele>792.5</ele>
        <time>2014-04-10T14:14:23Z</time>
      </trkpt>
      <trkpt lat="43.404474" lon="2.449470">
        <ele>791.5</ele>
        <time>2014-04-10T14:14:32Z</time>
      </trkpt>
      <trkpt lat="43.404370" lon="2.449526">
        <ele>791.0</ele>
        <time>2014-04-10T14:14:39Z</time>
      </trkpt>
      <trkpt lat="43.404264" lon="2.449580">
        <ele>790.7</ele>
        <time>2014-04-10T14:14:46Z</time>
      </trkpt>
      <trkpt lat="43.404145" lon="2.449650">
        <ele>790.3</ele>
        <time>2014-04-10T14:14:56Z</time>
      </trkpt>
      <trkpt lat="43.404015" lon="2.449727">
        <ele>789.9</ele>
        <time>2014-04-10T14:15:05Z</time>
      </trkpt>
      <trkpt lat="43.403909" lon="2.449824">
        <ele>789.8</ele>
        <time>2014-04-10T14:15:15Z</time>
      </trkpt>
      <trkpt lat="43.403806" lon="2.449930">
        <ele>789.3</ele>
        <time>2014-04-10T14:15:28Z</time>
      </trkpt>
      <trkpt lat="43.403748" lon="2.450036">
        <ele>789.0</ele>
        <time>2014-04-10T14:15:45Z</time>
      </trkpt>
      <trkpt lat="43.403642" lon="2.450106">
        <ele>788.8</ele>
        <time>2014-04-10T14:15:56Z</time>
      </trkpt>
      <trkpt lat="43.403540" lon="2.450218">
        <ele>788.4</ele>
        <time>2014-04-10T14:16:06Z</time>
      </trkpt>
      <trkpt lat="43.403406" lon="2.450388">
        <ele>788.2</ele>
        <time>2014-04-10T14:16:21Z</time>
      </trkpt>
      <trkpt lat="43.403285" lon="2.450491">
        <ele>788.1</ele>
        <time>2014-04-10T14:16:30Z</time>
      </trkpt>
      <trkpt lat="43.403172" lon="2.450591">
        <ele>787.7</ele>
        <time>2014-04-10T14:16:40Z</time>
      </trkpt>
      <trkpt lat="43.403033" lon="2.450799">
        <ele>787.2</ele>
        <time>2014-04-10T14:16:56Z</time>
      </trkpt>
      <trkpt lat="43.402863" lon="2.450987">
        <ele>787.0</ele>
        <time>2014-04-10T14:17:05Z</time>
      </trkpt>
      <trkpt lat="43.402754" lon="2.451068">
        <ele>786.9</ele>
        <time>2014-04-10T14:17:12Z</time>
      </trkpt>
      <trkpt lat="43.402680" lon="2.451188">
        <ele>786.3</ele>
        <time>2014-04-10T14:17:26Z</time>
      </trkpt>
      <trkpt lat="43.402590" lon="2.451220">
        <ele>786.4</ele>
        <time>2014-04-10T14:17:46Z</time>
      </trkpt>
      <trkpt lat="43.402499" lon="2.451292">
        <ele>786.5</ele>
        <time>2014-04-10T14:17:58Z</time>
      </trkpt>
      <trkpt lat="43.402384" lon="2.451404">
        <ele>786.0</ele>
        <time>2014-04-10T14:18:12Z</time>
      </trkpt>
      <trkpt lat="43.402256" lon="2.451521">
        <ele>785.8</ele>
        <time>2014-04-10T14:18:23Z</time>
      </trkpt>
      <trkpt lat="43.402103" lon="2.451666">
        <ele>785.7</ele>
        <time>2014-04-10T14:18:35Z</time>
      </trkpt>
      <trkpt lat="43.401981" lon="2.451789">
        <ele>785.3</ele>
        <time>2014-04-10T14:18:46Z</time>
      </trkpt>
      <trkpt lat="43.401827" lon="2.451861">
        <ele>784.9</ele>
        <time>2014-04-10T14:18:56Z</time>
      </trkpt>
      <trkpt lat="43.401642" lon="2.451901">
        <ele>784.1</ele>
        <time>2014-04-10T14:19:09Z</time>
      </trkpt>
      <trkpt lat="43.401498" lon="2.451917">
        <ele>783.9</ele>
        <time>2014-04-10T14:19:18Z</time>
      </trkpt>
      <trkpt lat="43.401382" lon="2.451925">
        <ele>783.4</ele>
        <time>2014-04-10T14:19:25Z</time>
      </trkpt>
      <trkpt lat="43.401241" lon="2.451931">
        <ele>783.0</ele>
        <time>2014-04-10T14:19:36Z</time>
      </trkpt>
      <trkpt lat="43.401113" lon="2.451911">
        <ele>782.9</ele>
        <time>2014-04-10T14:19:46Z</time>
      </trkpt>
      <trkpt lat="43.400963" lon="2.451897">
        <ele>782.3</ele>
        <time>2014-04-10T14:19:55Z</time>
      </trkpt>
      <trkpt lat="43.400803" lon="2.451861">
        <ele>782.0</ele>
        <time>2014-04-10T14:20:06Z</time>
      </trkpt>
      <trkpt lat="43.400630" lon="2.451859">
        <ele>782.1</ele>
        <time>2014-04-10T14:20:15Z</time>
      </trkpt>
      <trkpt lat="43.400506" lon="2.451811">
        <ele>782.0</ele>
        <time>2014-04-10T14:20:21Z</time>
      </trkpt>
      <trkpt lat="43.400421" lon="2.451762">
        <ele>781.8</ele>
        <time>2014-04-10T14:20:26Z</time>
      </trkpt>
      <trkpt lat="43.400339" lon="2.451729">
        <ele>781.5</ele>
        <time>2014-04-10T14:20:33Z</time>
      </trkpt>
      <trkpt lat="43.400237" lon="2.451709">
        <ele>781.0</ele>
        <time>2014-04-10T14:20:42Z</time>
      </trkpt>
      <trkpt lat="43.400093" lon="2.451717">
        <ele>780.9</ele>
        <time>2014-04-10T14:20:53Z</time>
      </trkpt>
      <trkpt lat="43.399988" lon="2.451685">
        <ele>781.0</ele>
        <time>2014-04-10T14:21:02Z</time>
      </trkpt>
      <trkpt lat="43.399859" lon="2.451643">
        <ele>781.0</ele>
        <time>2014-04-10T14:21:11Z</time>
      </trkpt>
      <trkpt lat="43.399749" lon="2.451580">
        <ele>780.7</ele>
        <time>2014-04-10T14:21:18Z</time>
      </trkpt>
      <trkpt lat="43.399639" lon="2.451509">
        <ele>780.7</ele>
        <time>2014-04-10T14:21:27Z</time>
      </trkpt>
      <trkpt lat="43.399517" lon="2.451420">
        <ele>780.7</ele>
        <time>2014-04-10T14:21:39Z</time>
      </trkpt>
      <trkpt lat="43.399397" lon="2.451326">
        <ele>780.9</ele>
        <time>2014-04-10T14:21:47Z</time>
      </trkpt>
      <trkpt lat="43.399305" lon="2.451232">
        <ele>781.1</ele>
        <time>2014-04-10T14:21:53Z</time>
      </trkpt>
      <trkpt lat="43.399239" lon="2.451136">
        <ele>781.7</ele>
        <time>2014-04-10T14:21:59Z</time>
      </trkpt>
      <trkpt lat="43.399165" lon="2.451046">
        <ele>781.9</ele>
        <time>2014-04-10T14:22:04Z</time>
      </trkpt>
      <trkpt lat="43.399085" lon="2.450976">
        <ele>782.3</ele>
        <time>2014-04-10T14:22:14Z</time>
      </trkpt>
      <trkpt lat="43.398996" lon="2.450902">
        <ele>782.4</ele>
        <time>2014-04-10T14:22:25Z</time>
      </trkpt>
      <trkpt lat="43.398874" lon="2.450806">
        <ele>782.6</ele>
        <time>2014-04-10T14:22:35Z</time>
      </trkpt>
      <trkpt lat="43.398756" lon="2.450708">
        <ele>782.6</ele>
        <time>2014-04-10T14:22:42Z</time>
      </trkpt>
      <trkpt lat="43.398661" lon="2.450630">
        <ele>782.6</ele>
        <time>2014-04-10T14:22:49Z</time>
      </trkpt>
      <trkpt lat="43.398568" lon="2.450543">
        <ele>782.9</ele>
        <time>2014-04-10T14:22:58Z</time>
      </trkpt>
      <trkpt lat="43.398579" lon="2.450418">
        <ele>783.4</ele>
        <time>2014-04-10T14:23:07Z</time>
      </trkpt>
      <trkpt lat="43.398638" lon="2.450305">
        <ele>782.7</ele>
        <time>2014-04-10T14:23:15Z</time>
      </trkpt>
      <trkpt lat="43.398717" lon="2.450179">
        <ele>781.2</ele>
        <time>2014-04-10T14:23:24Z</time>
      </trkpt>
      <trkpt lat="43.398772" lon="2.450017">
        <ele>779.5</ele>
        <time>2014-04-10T14:23:32Z</time>
      </trkpt>
      <trkpt lat="43.398803" lon="2.449857">
        <ele>777.5</ele>
        <time>2014-04-10T14:23:39Z</time>
      </trkpt>
      <trkpt lat="43.398800" lon="2.449698">
        <ele>776.0</ele>
        <time>2014-04-10T14:23:47Z</time>
      </trkpt>
      <trkpt lat="43.398899" lon="2.449593">
        <ele>774.6</ele>
        <time>2014-04-10T14:23:56Z</time>
      </trkpt>
      <trkpt lat="43.398996" lon="2.449474">
        <ele>773.3</ele>
        <time>2014-04-10T14:24:04Z</time>
      </trkpt>
      <trkpt lat="43.399027" lon="2.449327">
        <ele>772.3</ele>
        <time>2014-04-10T14:24:19Z</time>
      </trkpt>
      <trkpt lat="43.399039" lon="2.449166">
        <ele>772.2</ele>
        <time>2014-04-10T14:24:28Z</time>
      </trkpt>
      <trkpt lat="43.399036" lon="2.448997">
        <ele>771.8</ele>
        <time>2014-04-10T14:24:36Z</time>
      </trkpt>
      <trkpt lat="43.399025" lon="2.448797">
        <ele>771.5</ele>
        <time>2014-04-10T14:24:45Z</time>
      </trkpt>
      <trkpt lat="43.399026" lon="2.448621">
        <ele>771.3</ele>
        <time>2014-04-10T14:24:55Z</time>
      </trkpt>
      <trkpt lat="43.399044" lon="2.448416">
        <ele>771.0</ele>
        <time>2014-04-10T14:25:05Z</time>
      </trkpt>
      <trkpt lat="43.399048" lon="2.448231">
        <ele>771.0</ele>
        <time>2014-04-10T14:25:13Z</time>
      </trkpt>
      <trkpt lat="43.399042" lon="2.448083">
        <ele>771.0</ele>
        <time>2014-04-10T14:25:19Z</time>
      </trkpt>
      <trkpt lat="43.399045" lon="2.447922">
        <ele>771.2</ele>
        <time>2014-04-10T14:25:25Z</time>
      </trkpt>
      <trkpt lat="43.399061" lon="2.447818">
        <ele>771.1</ele>
        <time>2014-04-10T14:25:30Z</time>
      </trkpt>
      <trkpt lat="43.399121" lon="2.447725">
        <ele>771.5</ele>
        <time>2014-04-10T14:25:36Z</time>
      </trkpt>
      <trkpt lat="43.399197" lon="2.447680">
        <ele>771.8</ele>
        <time>2014-04-10T14:25:41Z</time>
      </trkpt>
      <trkpt lat="43.399262" lon="2.447655">
        <ele>772.2</ele>
        <time>2014-04-10T14:25:46Z</time>
      </trkpt>
      <trkpt lat="43.399328" lon="2.447620">
        <ele>772.7</ele>
        <time>2014-04-10T14:25:51Z</time>
      </trkpt>
      <trkpt lat="43.399356" lon="2.447519">
        <ele>773.3</ele>
        <time>2014-04-10T14:25:59Z</time>
      </trkpt>
      <trkpt lat="43.399446" lon="2.447413">
        <ele>774.2</ele>
        <time>2014-04-10T14:26:10Z</time>
      </trkpt>
      <trkpt lat="43.399538" lon="2.447335">
        <ele>775.0</ele>
        <time>2014-04-10T14:26:16Z</time>
      </trkpt>
      <trkpt lat="43.399626" lon="2.447271">
        <ele>775.8</ele>
        <time>2014-04-10T14:26:24Z</time>
      </trkpt>
      <trkpt lat="43.399707" lon="2.447183">
        <ele>776.5</ele>
        <time>2014-04-10T14:26:32Z</time>
      </trkpt>
      <trkpt lat="43.399773" lon="2.447082">
        <ele>777.0</ele>
        <time>2014-04-10T14:26:40Z</time>
      </trkpt>
      <trkpt lat="43.399840" lon="2.446949">
        <ele>776.7</ele>
        <time>2014-04-10T14:26:48Z</time>
      </trkpt>
      <trkpt lat="43.399881" lon="2.446794">
        <ele>776.7</ele>
        <time>2014-04-10T14:26:56Z</time>
      </trkpt>
      <trkpt lat="43.399918" lon="2.446635">
        <ele>776.5</ele>
        <time>2014-04-10T14:27:05Z</time>
      </trkpt>
      <trkpt lat="43.399970" lon="2.446517">
        <ele>776.4</ele>
        <time>2014-04-10T14:27:11Z</time>
      </trkpt>
      <trkpt lat="43.400025" lon="2.446395">
        <ele>776.4</ele>
        <time>2014-04-10T14:27:17Z</time>
      </trkpt>
      <trkpt lat="43.400097" lon="2.446289">
        <ele>776.4</ele>
        <time>2014-04-10T14:27:24Z</time>
      </trkpt>
      <trkpt lat="43.400162" lon="2.446181">
        <ele>776.2</ele>
        <time>2014-04-10T14:27:33Z</time>
      </trkpt>
      <trkpt lat="43.400230" lon="2.446006">
        <ele>775.9</ele>
        <time>2014-04-10T14:27:42Z</time>
      </trkpt>
      <trkpt lat="43.400273" lon="2.445850">
        <ele>775.8</ele>
        <time>2014-04-10T14:27:49Z</time>
      </trkpt>
      <trkpt lat="43.400301" lon="2.445704">
        <ele>775.9</ele>
        <time>2014-04-10T14:27:57Z</time>
      </trkpt>
      <trkpt lat="43.400361" lon="2.445514">
        <ele>776.0</ele>
        <time>2014-04-10T14:28:08Z</time>
      </trkpt>
      <trkpt lat="43.400368" lon="2.445299">
        <ele>775.7</ele>
        <time>2014-04-10T14:28:20Z</time>
      </trkpt>
      <trkpt lat="43.400396" lon="2.445152">
        <ele>775.4</ele>
        <time>2014-04-10T14:28:27Z</time>
      </trkpt>
      <trkpt lat="43.400434" lon="2.445002">
        <ele>775.0</ele>
        <time>2014-04-10T14:28:36Z</time>
      </trkpt>
      <trkpt lat="43.400481" lon="2.444822">
        <ele>774.7</ele>
        <time>2014-04-10T14:28:46Z</time>
      </trkpt>
      <trkpt lat="43.400568" lon="2.444724">
        <ele>774.2</ele>
        <time>2014-04-10T14:28:56Z</time>
      </trkpt>
      <trkpt lat="43.400633" lon="2.444614">
        <ele>773.4</ele>
        <time>2014-04-10T14:29:08Z</time>
      </trkpt>
      <trkpt lat="43.400710" lon="2.444433">
        <ele>773.0</ele>
        <time>2014-04-10T14:29:22Z</time>
      </trkpt>
      <trkpt lat="43.400770" lon="2.444254">
        <ele>773.0</ele>
        <time>2014-04-10T14:29:32Z</time>
      </trkpt>
      <trkpt lat="43.400831" lon="2.444067">
        <ele>772.8</ele>
        <time>2014-04-10T14:29:43Z</time>
      </trkpt>
      <trkpt lat="43.400893" lon="2.443870">
        <ele>772.9</ele>
        <time>2014-04-10T14:29:54Z</time>
      </trkpt>
      <trkpt lat="43.400967" lon="2.443677">
        <ele>773.0</ele>
        <time>2014-04-10T14:30:05Z</time>
      </trkpt>
      <trkpt lat="43.401053" lon="2.443550">
        <ele>774.2</ele>
        <time>2014-04-10T14:30:17Z</time>
      </trkpt>
      <trkpt lat="43.401155" lon="2.443384">
        <ele>774.9</ele>
        <time>2014-04-10T14:30:29Z</time>
      </trkpt>
      <trkpt lat="43.401317" lon="2.443350">
        <ele>775.5</ele>
        <time>2014-04-10T14:30:41Z</time>
      </trkpt>
      <trkpt lat="43.401467" lon="2.443361">
        <ele>776.4</ele>
        <time>2014-04-10T14:30:53Z</time>
      </trkpt>
      <trkpt lat="43.401618" lon="2.443456">
        <ele>777.6</ele>
        <time>2014-04-10T14:31:08Z</time>
      </trkpt>
      <trkpt lat="43.401768" lon="2.443575">
        <ele>778.2</ele>
        <time>2014-04-10T14:31:18Z</time>
      </trkpt>
      <trkpt lat="43.401894" lon="2.443689">
        <ele>779.1</ele>
        <time>2014-04-10T14:31:28Z</time>
      </trkpt>
      <trkpt lat="43.402050" lon="2.443766">
        <ele>780.3</ele>
        <time>2014-04-10T14:31:38Z</time>
      </trkpt>
      <trkpt lat="43.402175" lon="2.443833">
        <ele>781.5</ele>
        <time>2014-04-10T14:31:47Z</time>
      </trkpt>
      <trkpt lat="43.402186" lon="2.443740">
        <ele>782.7</ele>
        <time>2014-04-10T14:31:57Z</time>
      </trkpt>
      <trkpt lat="43.402157" lon="2.443619">
        <ele>782.8</ele>
        <time>2014-04-10T14:32:03Z</time>
      </trkpt>
      <trkpt lat="43.402124" lon="2.443521">
        <ele>783.1</ele>
        <time>2014-04-10T14:32:08Z</time>
      </trkpt>
      <trkpt lat="43.402094" lon="2.443406">
        <ele>783.0</ele>
        <time>2014-04-10T14:32:14Z</time>
      </trkpt>
      <trkpt lat="43.402088" lon="2.443287">
        <ele>782.8</ele>
        <time>2014-04-10T14:32:22Z</time>
      </trkpt>
      <trkpt lat="43.402072" lon="2.443119">
        <ele>783.1</ele>
        <time>2014-04-10T14:32:33Z</time>
      </trkpt>
      <trkpt lat="43.402042" lon="2.442915">
        <ele>782.8</ele>
        <time>2014-04-10T14:32:41Z</time>
      </trkpt>
      <trkpt lat="43.402029" lon="2.442792">
        <ele>783.0</ele>
        <time>2014-04-10T14:32:47Z</time>
      </trkpt>
      <trkpt lat="43.402017" lon="2.442652">
        <ele>782.9</ele>
        <time>2014-04-10T14:32:55Z</time>
      </trkpt>
      <trkpt lat="43.402005" lon="2.442519">
        <ele>782.9</ele>
        <time>2014-04-10T14:33:01Z</time>
      </trkpt>
      <trkpt lat="43.402036" lon="2.442370">
        <ele>783.0</ele>
        <time>2014-04-10T14:33:08Z</time>
      </trkpt>
      <trkpt lat="43.402062" lon="2.442265">
        <ele>783.0</ele>
        <time>2014-04-10T14:33:57Z</time>
      </trkpt>
      <trkpt lat="43.402062" lon="2.442148">
        <ele>783.0</ele>
        <time>2014-04-10T14:34:02Z</time>
      </trkpt>
      <trkpt lat="43.402057" lon="2.442030">
        <ele>783.0</ele>
        <time>2014-04-10T14:34:08Z</time>
      </trkpt>
      <trkpt lat="43.402047" lon="2.441917">
        <ele>782.9</ele>
        <time>2014-04-10T14:34:15Z</time>
      </trkpt>
      <trkpt lat="43.402035" lon="2.441768">
        <ele>783.0</ele>
        <time>2014-04-10T14:34:24Z</time>
      </trkpt>
      <trkpt lat="43.402013" lon="2.441626">
        <ele>783.0</ele>
        <time>2014-04-10T14:34:31Z</time>
      </trkpt>
      <trkpt lat="43.402013" lon="2.441502">
        <ele>783.1</ele>
        <time>2014-04-10T14:34:38Z</time>
      </trkpt>
      <trkpt lat="43.402024" lon="2.441379">
        <ele>783.1</ele>
        <time>2014-04-10T14:34:44Z</time>
      </trkpt>
      <trkpt lat="43.402039" lon="2.441263">
        <ele>783.0</ele>
        <time>2014-04-10T14:34:51Z</time>
      </trkpt>
      <trkpt lat="43.402035" lon="2.441134">
        <ele>783.5</ele>
        <time>2014-04-10T14:35:00Z</time>
      </trkpt>
      <trkpt lat="43.402025" lon="2.440988">
        <ele>783.3</ele>
        <time>2014-04-10T14:35:08Z</time>
      </trkpt>
      <trkpt lat="43.402013" lon="2.440842">
        <ele>783.5</ele>
        <time>2014-04-10T14:35:16Z</time>
      </trkpt>
      <trkpt lat="43.402019" lon="2.440699">
        <ele>783.6</ele>
        <time>2014-04-10T14:35:25Z</time>
      </trkpt>
      <trkpt lat="43.401999" lon="2.440537">
        <ele>783.5</ele>
        <time>2014-04-10T14:35:33Z</time>
      </trkpt>
      <trkpt lat="43.401959" lon="2.440383">
        <ele>783.3</ele>
        <time>2014-04-10T14:35:42Z</time>
      </trkpt>
      <trkpt lat="43.402018" lon="2.440281">
        <ele>783.7</ele>
        <time>2014-04-10T14:35:50Z</time>
      </trkpt>
      <trkpt lat="43.402112" lon="2.440252">
        <ele>784.8</ele>
        <time>2014-04-10T14:36:11Z</time>
      </trkpt>
      <trkpt lat="43.402206" lon="2.440272">
        <ele>784.6</ele>
        <time>2014-04-10T14:36:20Z</time>
      </trkpt>
      <trkpt lat="43.402305" lon="2.440282">
        <ele>783.9</ele>
        <time>2014-04-10T14:36:28Z</time>
      </trkpt>
      <trkpt lat="43.402409" lon="2.440273">
        <ele>783.1</ele>
        <time>2014-04-10T14:36:37Z</time>
      </trkpt>
      <trkpt lat="43.402451" lon="2.440300">
        <ele>783.2</ele>
        <time>2014-04-10T14:37:02Z</time>
      </trkpt>
      <trkpt lat="43.402564" lon="2.440250">
        <ele>783.2</ele>
        <time>2014-04-10T14:37:10Z</time>
      </trkpt>
      <trkpt lat="43.402653" lon="2.440172">
        <ele>783.3</ele>
        <time>2014-04-10T14:37:19Z</time>
      </trkpt>
      <trkpt lat="43.402756" lon="2.440111">
        <ele>784.0</ele>
        <time>2014-04-10T14:37:28Z</time>
      </trkpt>
      <trkpt lat="43.402833" lon="2.440033">
        <ele>784.2</ele>
        <time>2014-04-10T14:37:36Z</time>
      </trkpt>
      <trkpt lat="43.402901" lon="2.439936">
        <ele>784.5</ele>
        <time>2014-04-10T14:37:46Z</time>
      </trkpt>
      <trkpt lat="43.402969" lon="2.439841">
        <ele>786.6</ele>
        <time>2014-04-10T14:38:45Z</time>
      </trkpt>
      <trkpt lat="43.402974" lon="2.439671">
        <ele>787.0</ele>
        <time>2014-04-10T14:38:55Z</time>
      </trkpt>
      <trkpt lat="43.402980" lon="2.439500">
        <ele>787.9</ele>
        <time>2014-04-10T14:39:06Z</time>
      </trkpt>
      <trkpt lat="43.403016" lon="2.439331">
        <ele>788.6</ele>
        <time>2014-04-10T14:39:17Z</time>
      </trkpt>
      <trkpt lat="43.403060" lon="2.439200">
        <ele>789.6</ele>
        <time>2014-04-10T14:39:30Z</time>
      </trkpt>
      <trkpt lat="43.403124" lon="2.439104">
        <ele>790.6</ele>
        <time>2014-04-10T14:39:45Z</time>
      </trkpt>
      <trkpt lat="43.403236" lon="2.439094">
        <ele>790.4</ele>
        <time>2014-04-10T14:39:54Z</time>
      </trkpt>
      <trkpt lat="43.403345" lon="2.439148">
        <ele>790.3</ele>
        <time>2014-04-10T14:40:03Z</time>
      </trkpt>
      <trkpt lat="43.403428" lon="2.439243">
        <ele>790.2</ele>
        <time>2014-04-10T14:40:10Z</time>
      </trkpt>
      <trkpt lat="43.403508" lon="2.439327">
        <ele>790.4</ele>
        <time>2014-04-10T14:40:18Z</time>
      </trkpt>
      <trkpt lat="43.403600" lon="2.439367">
        <ele>789.6</ele>
        <time>2014-04-10T14:40:27Z</time>
      </trkpt>
      <trkpt lat="43.403707" lon="2.439384">
        <ele>789.3</ele>
        <time>2014-04-10T14:40:37Z</time>
      </trkpt>
      <trkpt lat="43.403794" lon="2.439486">
        <ele>789.3</ele>
        <time>2014-04-10T14:40:47Z</time>
      </trkpt>
      <trkpt lat="43.403815" lon="2.439631">
        <ele>788.8</ele>
        <time>2014-04-10T14:40:56Z</time>
      </trkpt>
      <trkpt lat="43.403918" lon="2.439712">
        <ele>788.3</ele>
        <time>2014-04-10T14:41:05Z</time>
      </trkpt>
      <trkpt lat="43.404030" lon="2.439722">
        <ele>789.4</ele>
        <time>2014-04-10T14:41:17Z</time>
      </trkpt>
      <trkpt lat="43.404119" lon="2.439774">
        <ele>791.0</ele>
        <time>2014-04-10T14:41:27Z</time>
      </trkpt>
      <trkpt lat="43.404217" lon="2.439814">
        <ele>793.4</ele>
        <time>2014-04-10T14:41:38Z</time>
      </trkpt>
      <trkpt lat="43.404314" lon="2.439841">
        <ele>794.7</ele>
        <time>2014-04-10T14:41:48Z</time>
      </trkpt>
      <trkpt lat="43.404455" lon="2.439828">
        <ele>796.2</ele>
        <time>2014-04-10T14:43:19Z</time>
      </trkpt>
      <trkpt lat="43.404549" lon="2.439790">
        <ele>796.7</ele>
        <time>2014-04-10T14:43:29Z</time>
      </trkpt>
      <trkpt lat="43.404640" lon="2.439748">
        <ele>797.0</ele>
        <time>2014-04-10T14:43:36Z</time>
      </trkpt>
      <trkpt lat="43.404736" lon="2.439720">
        <ele>798.3</ele>
        <time>2014-04-10T14:43:46Z</time>
      </trkpt>
      <trkpt lat="43.404841" lon="2.439701">
        <ele>798.9</ele>
        <time>2014-04-10T14:43:54Z</time>
      </trkpt>
      <trkpt lat="43.404954" lon="2.439713">
        <ele>799.8</ele>
        <time>2014-04-10T14:44:05Z</time>
      </trkpt>
      <trkpt lat="43.405063" lon="2.439748">
        <ele>800.4</ele>
        <time>2014-04-10T14:44:16Z</time>
      </trkpt>
      <trkpt lat="43.405157" lon="2.439810">
        <ele>801.1</ele>
        <time>2014-04-10T14:44:26Z</time>
      </trkpt>
      <trkpt lat="43.405280" lon="2.439863">
        <ele>802.0</ele>
        <time>2014-04-10T14:44:38Z</time>
      </trkpt>
      <trkpt lat="43.405532" lon="2.439837">
        <ele>804.7</ele>
        <time>2014-04-10T14:46:17Z</time>
      </trkpt>
      <trkpt lat="43.405630" lon="2.439787">
        <ele>806.1</ele>
        <time>2014-04-10T14:46:30Z</time>
      </trkpt>
      <trkpt lat="43.405726" lon="2.439742">
        <ele>809.0</ele>
        <time>2014-04-10T14:46:43Z</time>
      </trkpt>
      <trkpt lat="43.405857" lon="2.439704">
        <ele>810.9</ele>
        <time>2014-04-10T14:46:55Z</time>
      </trkpt>
      <trkpt lat="43.405952" lon="2.439660">
        <ele>812.2</ele>
        <time>2014-04-10T14:47:06Z</time>
      </trkpt>
      <trkpt lat="43.406051" lon="2.439621">
        <ele>814.0</ele>
        <time>2014-04-10T14:47:19Z</time>
      </trkpt>
      <trkpt lat="43.406143" lon="2.439569">
        <ele>816.1</ele>
        <time>2014-04-10T14:47:31Z</time>
      </trkpt>
      <trkpt lat="43.406256" lon="2.439603">
        <ele>817.9</ele>
        <time>2014-04-10T14:47:42Z</time>
      </trkpt>
      <trkpt lat="43.406241" lon="2.439536">
        <ele>820.0</ele>
        <time>2014-04-10T14:48:00Z</time>
      </trkpt>
      <trkpt lat="43.406168" lon="2.439451">
        <ele>819.7</ele>
        <time>2014-04-10T14:48:09Z</time>
      </trkpt>
      <trkpt lat="43.406101" lon="2.439337">
        <ele>820.0</ele>
        <time>2014-04-10T14:48:19Z</time>
      </trkpt>
      <trkpt lat="43.406000" lon="2.439259">
        <ele>819.9</ele>
        <time>2014-04-10T14:48:29Z</time>
      </trkpt>
      <trkpt lat="43.405907" lon="2.439174">
        <ele>819.4</ele>
        <time>2014-04-10T14:48:40Z</time>
      </trkpt>
      <trkpt lat="43.405840" lon="2.439062">
        <ele>819.1</ele>
        <time>2014-04-10T14:48:49Z</time>
      </trkpt>
      <trkpt lat="43.405821" lon="2.438942">
        <ele>820.2</ele>
        <time>2014-04-10T14:49:05Z</time>
      </trkpt>
      <trkpt lat="43.405779" lon="2.438827">
        <ele>821.8</ele>
        <time>2014-04-10T14:49:20Z</time>
      </trkpt>
      <trkpt lat="43.405642" lon="2.438610">
        <ele>823.0</ele>
        <time>2014-04-10T14:49:32Z</time>
      </trkpt>
      <trkpt lat="43.405548" lon="2.438473">
        <ele>824.8</ele>
        <time>2014-04-10T14:49:44Z</time>
      </trkpt>
      <trkpt lat="43.405473" lon="2.438335">
        <ele>827.1</ele>
        <time>2014-04-10T14:49:56Z</time>
      </trkpt>
      <trkpt lat="43.405396" lon="2.438196">
        <ele>830.4</ele>
        <time>2014-04-10T14:50:16Z</time>
      </trkpt>
      <trkpt lat="43.405320" lon="2.438040">
        <ele>831.4</ele>
        <time>2014-04-10T14:50:27Z</time>
      </trkpt>
      <trkpt lat="43.405239" lon="2.437892">
        <ele>831.7</ele>
        <time>2014-04-10T14:50:37Z</time>
      </trkpt>
      <trkpt lat="43.405192" lon="2.437762">
        <ele>831.8</ele>
        <time>2014-04-10T14:50:45Z</time>
      </trkpt>
      <trkpt lat="43.405137" lon="2.437613">
        <ele>832.2</ele>
        <time>2014-04-10T14:50:53Z</time>
      </trkpt>
      <trkpt lat="43.405081" lon="2.437483">
        <ele>832.6</ele>
        <time>2014-04-10T14:51:00Z</time>
      </trkpt>
      <trkpt lat="43.405039" lon="2.437353">
        <ele>833.2</ele>
        <time>2014-04-10T14:51:08Z</time>
      </trkpt>
      <trkpt lat="43.405008" lon="2.437218">
        <ele>833.8</ele>
        <time>2014-04-10T14:51:16Z</time>
      </trkpt>
      <trkpt lat="43.404971" lon="2.437099">
        <ele>834.2</ele>
        <time>2014-04-10T14:51:23Z</time>
      </trkpt>
      <trkpt lat="43.404956" lon="2.436962">
        <ele>834.6</ele>
        <time>2014-04-10T14:51:32Z</time>
      </trkpt>
      <trkpt lat="43.404988" lon="2.436849">
        <ele>834.9</ele>
        <time>2014-04-10T14:51:40Z</time>
      </trkpt>
      <trkpt lat="43.404990" lon="2.436724">
        <ele>834.9</ele>
        <time>2014-04-10T14:51:50Z</time>
      </trkpt>
      <trkpt lat="43.405042" lon="2.436603">
        <ele>834.5</ele>
        <time>2014-04-10T14:51:59Z</time>
      </trkpt>
      <trkpt lat="43.405143" lon="2.436585">
        <ele>834.5</ele>
        <time>2014-04-10T14:52:11Z</time>
      </trkpt>
      <trkpt lat="43.405243" lon="2.436538">
        <ele>836.4</ele>
        <time>2014-04-10T14:52:24Z</time>
      </trkpt>
      <trkpt lat="43.405338" lon="2.436529">
        <ele>838.2</ele>
        <time>2014-04-10T14:52:34Z</time>
      </trkpt>
      <trkpt lat="43.405434" lon="2.436475">
        <ele>840.2</ele>
        <time>2014-04-10T14:52:47Z</time>
      </trkpt>
      <trkpt lat="43.405549" lon="2.436423">
        <ele>842.5</ele>
        <time>2014-04-10T14:53:06Z</time>
      </trkpt>
      <trkpt lat="43.405665" lon="2.436385">
        <ele>844.5</ele>
        <time>2014-04-10T14:53:20Z</time>
      </trkpt>
      <trkpt lat="43.405781" lon="2.436408">
        <ele>846.8</ele>
        <time>2014-04-10T14:53:32Z</time>
      </trkpt>
      <trkpt lat="43.405885" lon="2.436430">
        <ele>848.8</ele>
        <time>2014-04-10T14:53:44Z</time>
      </trkpt>
      <trkpt lat="43.405996" lon="2.436434">
        <ele>851.5</ele>
        <time>2014-04-10T14:53:59Z</time>
      </trkpt>
      <trkpt lat="43.406124" lon="2.436430">
        <ele>853.7</ele>
        <time>2014-04-10T14:54:12Z</time>
      </trkpt>
      <trkpt lat="43.406246" lon="2.436424">
        <ele>855.6</ele>
        <time>2014-04-10T14:54:23Z</time>
      </trkpt>
      <trkpt lat="43.406320" lon="2.436370">
        <ele>858.1</ele>
        <time>2014-04-10T14:54:41Z</time>
      </trkpt>
      <trkpt lat="43.406419" lon="2.436363">
        <ele>859.1</ele>
        <time>2014-04-10T14:54:51Z</time>
      </trkpt>
      <trkpt lat="43.406507" lon="2.436380">
        <ele>860.4</ele>
        <time>2014-04-10T14:55:00Z</time>
      </trkpt>
      <trkpt lat="43.406599" lon="2.436405">
        <ele>861.8</ele>
        <time>2014-04-10T14:55:09Z</time>
      </trkpt>
      <trkpt lat="43.406709" lon="2.436454">
        <ele>863.5</ele>
        <time>2014-04-10T14:55:19Z</time>
      </trkpt>
      <trkpt lat="43.406806" lon="2.436502">
        <ele>865.0</ele>
        <time>2014-04-10T14:55:28Z</time>
      </trkpt>
      <trkpt lat="43.406921" lon="2.436548">
        <ele>866.6</ele>
        <time>2014-04-10T14:55:38Z</time>
      </trkpt>
      <trkpt lat="43.407029" lon="2.436578">
        <ele>868.4</ele>
        <time>2014-04-10T14:55:48Z</time>
      </trkpt>
      <trkpt lat="43.407122" lon="2.436613">
        <ele>870.1</ele>
        <time>2014-04-10T14:55:56Z</time>
      </trkpt>
      <trkpt lat="43.407218" lon="2.436664">
        <ele>871.4</ele>
        <time>2014-04-10T14:56:05Z</time>
      </trkpt>
      <trkpt lat="43.407315" lon="2.436686">
        <ele>872.6</ele>
        <time>2014-04-10T14:56:14Z</time>
      </trkpt>
      <trkpt lat="43.407421" lon="2.436725">
        <ele>874.2</ele>
        <time>2014-04-10T14:56:23Z</time>
      </trkpt>
      <trkpt lat="43.407515" lon="2.436772">
        <ele>875.3</ele>
        <time>2014-04-10T14:56:33Z</time>
      </trkpt>
      <trkpt lat="43.407601" lon="2.436816">
        <ele>877.4</ele>
        <time>2014-04-10T14:56:43Z</time>
      </trkpt>
      <trkpt lat="43.407694" lon="2.436839">
        <ele>879.1</ele>
        <time>2014-04-10T14:56:53Z</time>
      </trkpt>
      <trkpt lat="43.407795" lon="2.436873">
        <ele>881.3</ele>
        <time>2014-04-10T14:57:05Z</time>
      </trkpt>
      <trkpt lat="43.407906" lon="2.436905">
        <ele>882.9</ele>
        <time>2014-04-10T14:57:17Z</time>
      </trkpt>
      <trkpt lat="43.407996" lon="2.436912">
        <ele>883.6</ele>
        <time>2014-04-10T14:57:35Z</time>
      </trkpt>
      <trkpt lat="43.407993" lon="2.436953">
        <ele>884.0</ele>
        <time>2014-04-10T14:58:34Z</time>
      </trkpt>
      <trkpt lat="43.408001" lon="2.436801">
        <ele>885.0</ele>
        <time>2014-04-10T14:58:46Z</time>
      </trkpt>
      <trkpt lat="43.407981" lon="2.436665">
        <ele>886.1</ele>
        <time>2014-04-10T14:58:56Z</time>
      </trkpt>
      <trkpt lat="43.407996" lon="2.436535">
        <ele>886.6</ele>
        <time>2014-04-10T14:59:04Z</time>
      </trkpt>
      <trkpt lat="43.408040" lon="2.436398">
        <ele>886.8</ele>
        <time>2014-04-10T14:59:11Z</time>
      </trkpt>
      <trkpt lat="43.408095" lon="2.436296">
        <ele>887.1</ele>
        <time>2014-04-10T14:59:19Z</time>
      </trkpt>
      <trkpt lat="43.408146" lon="2.436179">
        <ele>887.4</ele>
        <time>2014-04-10T14:59:27Z</time>
      </trkpt>
      <trkpt lat="43.408195" lon="2.436072">
        <ele>887.5</ele>
        <time>2014-04-10T14:59:35Z</time>
      </trkpt>
      <trkpt lat="43.408257" lon="2.435969">
        <ele>888.0</ele>
        <time>2014-04-10T14:59:43Z</time>
      </trkpt>
      <trkpt lat="43.408324" lon="2.435851">
        <ele>888.5</ele>
        <time>2014-04-10T14:59:53Z</time>
      </trkpt>
      <trkpt lat="43.408398" lon="2.435745">
        <ele>888.8</ele>
        <time>2014-04-10T15:00:00Z</time>
      </trkpt>
      <trkpt lat="43.408481" lon="2.435673">
        <ele>888.9</ele>
        <time>2014-04-10T15:00:07Z</time>
      </trkpt>
      <trkpt lat="43.408560" lon="2.435573">
        <ele>889.3</ele>
        <time>2014-04-10T15:00:16Z</time>
      </trkpt>
      <trkpt lat="43.408639" lon="2.435503">
        <ele>889.2</ele>
        <time>2014-04-10T15:00:24Z</time>
      </trkpt>
      <trkpt lat="43.408720" lon="2.435422">
        <ele>889.8</ele>
        <time>2014-04-10T15:00:33Z</time>
      </trkpt>
      <trkpt lat="43.408809" lon="2.435357">
        <ele>889.7</ele>
        <time>2014-04-10T15:00:41Z</time>
      </trkpt>
      <trkpt lat="43.408881" lon="2.435256">
        <ele>889.8</ele>
        <time>2014-04-10T15:00:49Z</time>
      </trkpt>
      <trkpt lat="43.408950" lon="2.435139">
        <ele>889.5</ele>
        <time>2014-04-10T15:00:58Z</time>
      </trkpt>
      <trkpt lat="43.409044" lon="2.435073">
        <ele>889.1</ele>
        <time>2014-04-10T15:01:07Z</time>
      </trkpt>
      <trkpt lat="43.409133" lon="2.435028">
        <ele>889.2</ele>
        <time>2014-04-10T15:01:15Z</time>
      </trkpt>
      <trkpt lat="43.409232" lon="2.434998">
        <ele>889.6</ele>
        <time>2014-04-10T15:01:24Z</time>
      </trkpt>
      <trkpt lat="43.409331" lon="2.434954">
        <ele>889.6</ele>
        <time>2014-04-10T15:01:33Z</time>
      </trkpt>
      <trkpt lat="43.409433" lon="2.434925">
        <ele>889.7</ele>
        <time>2014-04-10T15:01:42Z</time>
      </trkpt>
      <trkpt lat="43.409533" lon="2.434887">
        <ele>889.7</ele>
        <time>2014-04-10T15:01:50Z</time>
      </trkpt>
      <trkpt lat="43.409613" lon="2.434804">
        <ele>889.3</ele>
        <time>2014-04-10T15:02:00Z</time>
      </trkpt>
      <trkpt lat="43.409698" lon="2.434738">
        <ele>889.5</ele>
        <time>2014-04-10T15:02:07Z</time>
      </trkpt>
      <trkpt lat="43.409781" lon="2.434643">
        <ele>889.5</ele>
        <time>2014-04-10T15:02:17Z</time>
      </trkpt>
      <trkpt lat="43.409870" lon="2.434583">
        <ele>889.4</ele>
        <time>2014-04-10T15:02:29Z</time>
      </trkpt>
      <trkpt lat="43.409960" lon="2.434482">
        <ele>889.4</ele>
        <time>2014-04-10T15:02:41Z</time>
      </trkpt>
      <trkpt lat="43.410051" lon="2.434387">
        <ele>890.0</ele>
        <time>2014-04-10T15:02:54Z</time>
      </trkpt>
      <trkpt lat="43.410135" lon="2.434231">
        <ele>890.4</ele>
        <time>2014-04-10T15:03:07Z</time>
      </trkpt>
      <trkpt lat="43.410232" lon="2.434027">
        <ele>890.8</ele>
        <time>2014-04-10T15:03:22Z</time>
      </trkpt>
      <trkpt lat="43.410325" lon="2.433864">
        <ele>891.7</ele>
        <time>2014-04-10T15:03:34Z</time>
      </trkpt>
      <trkpt lat="43.410429" lon="2.433708">
        <ele>892.2</ele>
        <time>2014-04-10T15:03:45Z</time>
      </trkpt>
      <trkpt lat="43.410539" lon="2.433533">
        <ele>892.6</ele>
        <time>2014-04-10T15:03:56Z</time>
      </trkpt>
      <trkpt lat="43.410628" lon="2.433401">
        <ele>893.3</ele>
        <time>2014-04-10T15:04:05Z</time>
      </trkpt>
      <trkpt lat="43.410688" lon="2.433312">
        <ele>893.5</ele>
        <time>2014-04-10T15:04:15Z</time>
      </trkpt>
      <trkpt lat="43.410790" lon="2.433222">
        <ele>893.6</ele>
        <time>2014-04-10T15:04:28Z</time>
      </trkpt>
      <trkpt lat="43.410934" lon="2.433120">
        <ele>894.0</ele>
        <time>2014-04-10T15:04:40Z</time>
      </trkpt>
      <trkpt lat="43.411030" lon="2.432979">
        <ele>894.3</ele>
        <time>2014-04-10T15:04:55Z</time>
      </trkpt>
      <trkpt lat="43.411109" lon="2.432779">
        <ele>895.3</ele>
        <time>2014-04-10T15:05:09Z</time>
      </trkpt>
      <trkpt lat="43.411123" lon="2.432511">
        <ele>896.7</ele>
        <time>2014-04-10T15:05:24Z</time>
      </trkpt>
      <trkpt lat="43.411129" lon="2.432327">
        <ele>897.1</ele>
        <time>2014-04-10T15:05:36Z</time>
      </trkpt>
      <trkpt lat="43.411117" lon="2.432175">
        <ele>897.9</ele>
        <time>2014-04-10T15:05:52Z</time>
      </trkpt>
      <trkpt lat="43.411093" lon="2.431958">
        <ele>898.6</ele>
        <time>2014-04-10T15:06:06Z</time>
      </trkpt>
      <trkpt lat="43.411060" lon="2.431783">
        <ele>898.6</ele>
        <time>2014-04-10T15:06:17Z</time>
      </trkpt>
      <trkpt lat="43.411002" lon="2.431603">
        <ele>898.9</ele>
        <time>2014-04-10T15:06:29Z</time>
      </trkpt>
      <trkpt lat="43.410928" lon="2.431397">
        <ele>899.0</ele>
        <time>2014-04-10T15:06:41Z</time>
      </trkpt>
      <trkpt lat="43.410895" lon="2.431228">
        <ele>899.1</ele>
        <time>2014-04-10T15:06:52Z</time>
      </trkpt>
      <trkpt lat="43.410881" lon="2.431050">
        <ele>899.3</ele>
        <time>2014-04-10T15:07:05Z</time>
      </trkpt>
      <trkpt lat="43.410874" lon="2.430839">
        <ele>899.4</ele>
        <time>2014-04-10T15:07:16Z</time>
      </trkpt>
      <trkpt lat="43.410868" lon="2.430641">
        <ele>899.4</ele>
        <time>2014-04-10T15:07:27Z</time>
      </trkpt>
      <trkpt lat="43.410877" lon="2.430451">
        <ele>899.3</ele>
        <time>2014-04-10T15:07:36Z</time>
      </trkpt>
      <trkpt lat="43.410904" lon="2.430262">
        <ele>899.2</ele>
        <time>2014-04-10T15:07:45Z</time>
      </trkpt>
      <trkpt lat="43.410918" lon="2.430099">
        <ele>899.3</ele>
        <time>2014-04-10T15:07:54Z</time>
      </trkpt>
      <trkpt lat="43.410925" lon="2.429946">
        <ele>899.2</ele>
        <time>2014-04-10T15:08:02Z</time>
      </trkpt>
      <trkpt lat="43.410967" lon="2.429779">
        <ele>899.2</ele>
        <time>2014-04-10T15:08:11Z</time>
      </trkpt>
      <trkpt lat="43.410979" lon="2.429641">
        <ele>899.2</ele>
        <time>2014-04-10T15:08:19Z</time>
      </trkpt>
      <trkpt lat="43.410977" lon="2.429506">
        <ele>899.2</ele>
        <time>2014-04-10T15:08:26Z</time>
      </trkpt>
      <trkpt lat="43.410989" lon="2.429381">
        <ele>899.1</ele>
        <time>2014-04-10T15:08:33Z</time>
      </trkpt>
      <trkpt lat="43.411004" lon="2.429268">
        <ele>899.2</ele>
        <time>2014-04-10T15:08:40Z</time>
      </trkpt>
      <trkpt lat="43.411019" lon="2.429137">
        <ele>899.1</ele>
        <time>2014-04-10T15:08:47Z</time>
      </trkpt>
      <trkpt lat="43.411033" lon="2.429012">
        <ele>898.7</ele>
        <time>2014-04-10T15:08:54Z</time>
      </trkpt>
      <trkpt lat="43.411052" lon="2.428882">
        <ele>898.1</ele>
        <time>2014-04-10T15:09:02Z</time>
      </trkpt>
      <trkpt lat="43.411079" lon="2.428745">
        <ele>897.5</ele>
        <time>2014-04-10T15:09:11Z</time>
      </trkpt>
      <trkpt lat="43.411099" lon="2.428606">
        <ele>897.3</ele>
        <time>2014-04-10T15:09:19Z</time>
      </trkpt>
      <trkpt lat="43.411116" lon="2.428467">
        <ele>897.1</ele>
        <time>2014-04-10T15:09:26Z</time>
      </trkpt>
      <trkpt lat="43.411141" lon="2.428345">
        <ele>897.0</ele>
        <time>2014-04-10T15:09:33Z</time>
      </trkpt>
      <trkpt lat="43.411155" lon="2.428203">
        <ele>896.8</ele>
        <time>2014-04-10T15:09:41Z</time>
      </trkpt>
      <trkpt lat="43.411199" lon="2.428099">
        <ele>896.5</ele>
        <time>2014-04-10T15:09:47Z</time>
      </trkpt>
      <trkpt lat="43.411261" lon="2.427980">
        <ele>896.1</ele>
        <time>2014-04-10T15:10:00Z</time>
      </trkpt>
      <trkpt lat="43.411334" lon="2.427859">
        <ele>895.9</ele>
        <time>2014-04-10T15:10:09Z</time>
      </trkpt>
      <trkpt lat="43.411392" lon="2.427718">
        <ele>895.3</ele>
        <time>2014-04-10T15:10:19Z</time>
      </trkpt>
      <trkpt lat="43.411464" lon="2.427605">
        <ele>894.8</ele>
        <time>2014-04-10T15:10:27Z</time>
      </trkpt>
      <trkpt lat="43.411527" lon="2.427499">
        <ele>894.3</ele>
        <time>2014-04-10T15:10:36Z</time>
      </trkpt>
      <trkpt lat="43.411603" lon="2.427414">
        <ele>893.9</ele>
        <time>2014-04-10T15:10:45Z</time>
      </trkpt>
      <trkpt lat="43.411687" lon="2.427335">
        <ele>893.8</ele>
        <time>2014-04-10T15:10:53Z</time>
      </trkpt>
      <trkpt lat="43.411771" lon="2.427268">
        <ele>893.4</ele>
        <time>2014-04-10T15:11:01Z</time>
      </trkpt>
      <trkpt lat="43.411868" lon="2.427202">
        <ele>892.5</ele>
        <time>2014-04-10T15:11:12Z</time>
      </trkpt>
      <trkpt lat="43.411945" lon="2.427092">
        <ele>891.9</ele>
        <time>2014-04-10T15:11:22Z</time>
      </trkpt>
      <trkpt lat="43.412042" lon="2.427026">
        <ele>891.0</ele>
        <time>2014-04-10T15:11:31Z</time>
      </trkpt>
      <trkpt lat="43.412145" lon="2.426961">
        <ele>889.4</ele>
        <time>2014-04-10T15:11:42Z</time>
      </trkpt>
      <trkpt lat="43.412238" lon="2.426898">
        <ele>888.4</ele>
        <time>2014-04-10T15:11:53Z</time>
      </trkpt>
      <trkpt lat="43.412380" lon="2.426880">
        <ele>888.0</ele>
        <time>2014-04-10T15:12:07Z</time>
      </trkpt>
      <trkpt lat="43.412501" lon="2.426840">
        <ele>887.3</ele>
        <time>2014-04-10T15:12:17Z</time>
      </trkpt>
      <trkpt lat="43.412616" lon="2.426783">
        <ele>886.4</ele>
        <time>2014-04-10T15:12:29Z</time>
      </trkpt>
      <trkpt lat="43.412721" lon="2.426754">
        <ele>885.6</ele>
        <time>2014-04-10T15:12:39Z</time>
      </trkpt>
      <trkpt lat="43.412821" lon="2.426711">
        <ele>884.8</ele>
        <time>2014-04-10T15:12:50Z</time>
      </trkpt>
      <trkpt lat="43.412972" lon="2.426680">
        <ele>883.7</ele>
        <time>2014-04-10T15:13:03Z</time>
      </trkpt>
      <trkpt lat="43.413059" lon="2.426647">
        <ele>883.1</ele>
        <time>2014-04-10T15:13:13Z</time>
      </trkpt>
      <trkpt lat="43.413181" lon="2.426610">
        <ele>882.2</ele>
        <time>2014-04-10T15:13:24Z</time>
      </trkpt>
      <trkpt lat="43.413281" lon="2.426601">
        <ele>881.5</ele>
        <time>2014-04-10T15:13:35Z</time>
      </trkpt>
      <trkpt lat="43.413409" lon="2.426559">
        <ele>880.1</ele>
        <time>2014-04-10T15:13:47Z</time>
      </trkpt>
      <trkpt lat="43.413537" lon="2.426484">
        <ele>878.9</ele>
        <time>2014-04-10T15:13:58Z</time>
      </trkpt>
      <trkpt lat="43.413677" lon="2.426411">
        <ele>877.2</ele>
        <time>2014-04-10T15:14:09Z</time>
      </trkpt>
      <trkpt lat="43.413814" lon="2.426322">
        <ele>875.4</ele>
        <time>2014-04-10T15:14:20Z</time>
      </trkpt>
      <trkpt lat="43.413948" lon="2.426262">
        <ele>872.9</ele>
        <time>2014-04-10T15:14:33Z</time>
      </trkpt>
      <trkpt lat="43.414045" lon="2.426167">
        <ele>871.0</ele>
        <time>2014-04-10T15:14:43Z</time>
      </trkpt>
      <trkpt lat="43.414130" lon="2.426082">
        <ele>869.5</ele>
        <time>2014-04-10T15:14:52Z</time>
      </trkpt>
      <trkpt lat="43.414248" lon="2.426021">
        <ele>869.0</ele>
        <time>2014-04-10T15:15:00Z</time>
      </trkpt>
      <trkpt lat="43.414346" lon="2.425911">
        <ele>869.0</ele>
        <time>2014-04-10T15:15:09Z</time>
      </trkpt>
      <trkpt lat="43.414405" lon="2.425793">
        <ele>869.4</ele>
        <time>2014-04-10T15:15:20Z</time>
      </trkpt>
      <trkpt lat="43.414449" lon="2.425660">
        <ele>869.3</ele>
        <time>2014-04-10T15:15:29Z</time>
      </trkpt>
      <trkpt lat="43.414497" lon="2.425527">
        <ele>869.7</ele>
        <time>2014-04-10T15:15:38Z</time>
      </trkpt>
      <trkpt lat="43.414545" lon="2.425406">
        <ele>870.2</ele>
        <time>2014-04-10T15:15:48Z</time>
      </trkpt>
      <trkpt lat="43.414557" lon="2.425265">
        <ele>870.7</ele>
        <time>2014-04-10T15:16:01Z</time>
      </trkpt>
      <trkpt lat="43.414620" lon="2.425137">
        <ele>871.4</ele>
        <time>2014-04-10T15:16:14Z</time>
      </trkpt>
      <trkpt lat="43.414687" lon="2.425042">
        <ele>872.2</ele>
        <time>2014-04-10T15:16:47Z</time>
      </trkpt>
      <trkpt lat="43.414667" lon="2.425162">
        <ele>874.1</ele>
        <time>2014-04-10T15:17:10Z</time>
      </trkpt>
      <trkpt lat="43.414649" lon="2.425279">
        <ele>874.7</ele>
        <time>2014-04-10T15:17:24Z</time>
      </trkpt>
      <trkpt lat="43.414694" lon="2.425409">
        <ele>876.8</ele>
        <time>2014-04-10T15:17:40Z</time>
      </trkpt>
      <trkpt lat="43.414793" lon="2.425527">
        <ele>878.8</ele>
        <time>2014-04-10T15:17:56Z</time>
      </trkpt>
      <trkpt lat="43.414861" lon="2.425621">
        <ele>881.1</ele>
        <time>2014-04-10T15:18:12Z</time>
      </trkpt>
      <trkpt lat="43.414936" lon="2.425692">
        <ele>883.7</ele>
        <time>2014-04-10T15:18:33Z</time>
      </trkpt>
      <trkpt lat="43.415031" lon="2.425707">
        <ele>885.5</ele>
        <time>2014-04-10T15:18:48Z</time>
      </trkpt>
      <trkpt lat="43.415090" lon="2.425840">
        <ele>887.9</ele>
        <time>2014-04-10T15:19:04Z</time>
      </trkpt>
      <trkpt lat="43.415128" lon="2.425998">
        <ele>889.8</ele>
        <time>2014-04-10T15:19:18Z</time>
      </trkpt>
      <trkpt lat="43.415151" lon="2.426158">
        <ele>892.7</ele>
        <time>2014-04-10T15:19:37Z</time>
      </trkpt>
      <trkpt lat="43.415158" lon="2.426297">
        <ele>894.4</ele>
        <time>2014-04-10T15:19:53Z</time>
      </trkpt>
      <trkpt lat="43.415234" lon="2.426292">
        <ele>896.6</ele>
        <time>2014-04-10T15:20:09Z</time>
      </trkpt>
      <trkpt lat="43.415368" lon="2.426267">
        <ele>897.2</ele>
        <time>2014-04-10T15:20:23Z</time>
      </trkpt>
      <trkpt lat="43.415477" lon="2.426208">
        <ele>898.0</ele>
        <time>2014-04-10T15:20:35Z</time>
      </trkpt>
      <trkpt lat="43.415591" lon="2.426137">
        <ele>898.5</ele>
        <time>2014-04-10T15:20:48Z</time>
      </trkpt>
      <trkpt lat="43.415712" lon="2.426056">
        <ele>898.8</ele>
        <time>2014-04-10T15:21:00Z</time>
      </trkpt>
      <trkpt lat="43.415804" lon="2.425992">
        <ele>899.0</ele>
        <time>2014-04-10T15:21:16Z</time>
      </trkpt>
      <trkpt lat="43.415879" lon="2.425934">
        <ele>899.2</ele>
        <time>2014-04-10T15:21:35Z</time>
      </trkpt>
      <trkpt lat="43.415968" lon="2.425935">
        <ele>899.7</ele>
        <time>2014-04-10T15:21:51Z</time>
      </trkpt>
      <trkpt lat="43.416092" lon="2.425972">
        <ele>901.0</ele>
        <time>2014-04-10T15:22:06Z</time>
      </trkpt>
      <trkpt lat="43.416157" lon="2.426084">
        <ele>903.6</ele>
        <time>2014-04-10T15:22:24Z</time>
      </trkpt>
      <trkpt lat="43.416281" lon="2.426111">
        <ele>905.8</ele>
        <time>2014-04-10T15:22:41Z</time>
      </trkpt>
      <trkpt lat="43.416366" lon="2.426104">
        <ele>906.5</ele>
        <time>2014-04-10T15:23:11Z</time>
      </trkpt>
      <trkpt lat="43.416500" lon="2.426088">
        <ele>907.4</ele>
        <time>2014-04-10T15:23:24Z</time>
      </trkpt>
      <trkpt lat="43.416589" lon="2.426076">
        <ele>907.9</ele>
        <time>2014-04-10T15:23:37Z</time>
      </trkpt>
      <trkpt lat="43.416692" lon="2.426066">
        <ele>908.5</ele>
        <time>2014-04-10T15:23:50Z</time>
      </trkpt>
      <trkpt lat="43.416800" lon="2.426003">
        <ele>909.3</ele>
        <time>2014-04-10T15:24:06Z</time>
      </trkpt>
      <trkpt lat="43.416800" lon="2.426032">
        <ele>909.6</ele>
        <time>2014-04-10T15:24:28Z</time>
      </trkpt>
      <trkpt lat="43.416841" lon="2.426156">
        <ele>911.1</ele>
        <time>2014-04-10T15:24:45Z</time>
      </trkpt>
      <trkpt lat="43.416918" lon="2.426234">
        <ele>913.0</ele>
        <time>2014-04-10T15:25:05Z</time>
      </trkpt>
      <trkpt lat="43.417039" lon="2.426214">
        <ele>914.4</ele>
        <time>2014-04-10T15:25:21Z</time>
      </trkpt>
      <trkpt lat="43.417144" lon="2.426193">
        <ele>915.0</ele>
        <time>2014-04-10T15:25:35Z</time>
      </trkpt>
      <trkpt lat="43.417291" lon="2.426201">
        <ele>915.6</ele>
        <time>2014-04-10T15:25:49Z</time>
      </trkpt>
      <trkpt lat="43.417405" lon="2.426192">
        <ele>916.9</ele>
        <time>2014-04-10T15:26:02Z</time>
      </trkpt>
      <trkpt lat="43.417476" lon="2.426185">
        <ele>918.1</ele>
        <time>2014-04-10T15:26:21Z</time>
      </trkpt>
      <trkpt lat="43.417537" lon="2.426295">
        <ele>920.1</ele>
        <time>2014-04-10T15:26:36Z</time>
      </trkpt>
      <trkpt lat="43.417587" lon="2.426384">
        <ele>922.5</ele>
        <time>2014-04-10T15:26:59Z</time>
      </trkpt>
      <trkpt lat="43.417700" lon="2.426416">
        <ele>923.2</ele>
        <time>2014-04-10T15:27:12Z</time>
      </trkpt>
      <trkpt lat="43.417815" lon="2.426396">
        <ele>923.7</ele>
        <time>2014-04-10T15:27:24Z</time>
      </trkpt>
      <trkpt lat="43.417927" lon="2.426336">
        <ele>924.3</ele>
        <time>2014-04-10T15:27:37Z</time>
      </trkpt>
      <trkpt lat="43.418035" lon="2.426270">
        <ele>924.7</ele>
        <time>2014-04-10T15:27:48Z</time>
      </trkpt>
      <trkpt lat="43.418132" lon="2.426212">
        <ele>925.0</ele>
        <time>2014-04-10T15:27:58Z</time>
      </trkpt>
      <trkpt lat="43.418220" lon="2.426153">
        <ele>924.7</ele>
        <time>2014-04-10T15:28:08Z</time>
      </trkpt>
      <trkpt lat="43.418288" lon="2.426065">
        <ele>924.2</ele>
        <time>2014-04-10T15:28:18Z</time>
      </trkpt>
      <trkpt lat="43.418316" lon="2.425999">
        <ele>923.7</ele>
        <time>2014-04-10T15:28:29Z</time>
      </trkpt>
      <trkpt lat="43.418337" lon="2.425869">
        <ele>922.7</ele>
        <time>2014-04-10T15:28:50Z</time>
      </trkpt>
      <trkpt lat="43.418425" lon="2.425812">
        <ele>921.2</ele>
        <time>2014-04-10T15:28:59Z</time>
      </trkpt>
      <trkpt lat="43.418512" lon="2.425744">
        <ele>920.2</ele>
        <time>2014-04-10T15:29:08Z</time>
      </trkpt>
      <trkpt lat="43.418587" lon="2.425659">
        <ele>919.2</ele>
        <time>2014-04-10T15:29:16Z</time>
      </trkpt>
      <trkpt lat="43.418609" lon="2.425534">
        <ele>917.2</ele>
        <time>2014-04-10T15:29:27Z</time>
      </trkpt>
      <trkpt lat="43.418654" lon="2.425405">
        <ele>915.7</ele>
        <time>2014-04-10T15:29:37Z</time>
      </trkpt>
      <trkpt lat="43.418686" lon="2.425285">
        <ele>913.9</ele>
        <time>2014-04-10T15:29:48Z</time>
      </trkpt>
      <trkpt lat="43.418769" lon="2.425240">
        <ele>912.2</ele>
        <time>2014-04-10T15:30:01Z</time>
      </trkpt>
      <trkpt lat="43.418880" lon="2.425264">
        <ele>912.1</ele>
        <time>2014-04-10T15:30:13Z</time>
      </trkpt>
      <trkpt lat="43.418975" lon="2.425250">
        <ele>911.6</ele>
        <time>2014-04-10T15:30:23Z</time>
      </trkpt>
      <trkpt lat="43.419088" lon="2.425235">
        <ele>911.0</ele>
        <time>2014-04-10T15:30:34Z</time>
      </trkpt>
      <trkpt lat="43.419204" lon="2.425250">
        <ele>910.6</ele>
        <time>2014-04-10T15:30:45Z</time>
      </trkpt>
      <trkpt lat="43.419348" lon="2.425262">
        <ele>910.6</ele>
        <time>2014-04-10T15:30:59Z</time>
      </trkpt>
      <trkpt lat="43.419471" lon="2.425307">
        <ele>909.8</ele>
        <time>2014-04-10T15:31:12Z</time>
      </trkpt>
      <trkpt lat="43.419596" lon="2.425322">
        <ele>909.5</ele>
        <time>2014-04-10T15:31:26Z</time>
      </trkpt>
      <trkpt lat="43.419737" lon="2.425328">
        <ele>909.3</ele>
        <time>2014-04-10T15:31:40Z</time>
      </trkpt>
      <trkpt lat="43.419870" lon="2.425342">
        <ele>908.9</ele>
        <time>2014-04-10T15:31:53Z</time>
      </trkpt>
      <trkpt lat="43.419989" lon="2.425391">
        <ele>908.5</ele>
        <time>2014-04-10T15:32:04Z</time>
      </trkpt>
      <trkpt lat="43.420126" lon="2.425450">
        <ele>908.0</ele>
        <time>2014-04-10T15:32:15Z</time>
      </trkpt>
      <trkpt lat="43.420258" lon="2.425513">
        <ele>907.3</ele>
        <time>2014-04-10T15:32:26Z</time>
      </trkpt>
      <trkpt lat="43.420352" lon="2.425539">
        <ele>907.0</ele>
        <time>2014-04-10T15:32:38Z</time>
      </trkpt>
      <trkpt lat="43.420461" lon="2.425565">
        <ele>906.1</ele>
        <time>2014-04-10T15:32:49Z</time>
      </trkpt>
      <trkpt lat="43.420562" lon="2.425631">
        <ele>905.6</ele>
        <time>2014-04-10T15:33:00Z</time>
      </trkpt>
      <trkpt lat="43.420678" lon="2.425730">
        <ele>905.4</ele>
        <time>2014-04-10T15:33:13Z</time>
      </trkpt>
      <trkpt lat="43.420819" lon="2.425795">
        <ele>905.1</ele>
        <time>2014-04-10T15:33:27Z</time>
      </trkpt>
      <trkpt lat="43.420954" lon="2.425841">
        <ele>904.6</ele>
        <time>2014-04-10T15:33:39Z</time>
      </trkpt>
      <trkpt lat="43.421066" lon="2.425892">
        <ele>904.5</ele>
        <time>2014-04-10T15:33:52Z</time>
      </trkpt>
      <trkpt lat="43.421177" lon="2.425929">
        <ele>904.6</ele>
        <time>2014-04-10T15:34:04Z</time>
      </trkpt>
      <trkpt lat="43.421273" lon="2.426032">
        <ele>905.2</ele>
        <time>2014-04-10T15:34:18Z</time>
      </trkpt>
      <trkpt lat="43.421363" lon="2.426163">
        <ele>905.9</ele>
        <time>2014-04-10T15:34:30Z</time>
      </trkpt>
      <trkpt lat="43.421404" lon="2.426278">
        <ele>908.1</ele>
        <time>2014-04-10T15:34:56Z</time>
      </trkpt>
      <trkpt lat="43.421400" lon="2.426356">
        <ele>908.7</ele>
        <time>2014-04-10T15:35:17Z</time>
      </trkpt>
      <trkpt lat="43.421449" lon="2.426421">
        <ele>909.4</ele>
        <time>2014-04-10T15:35:55Z</time>
      </trkpt>
      <trkpt lat="43.421538" lon="2.426518">
        <ele>910.6</ele>
        <time>2014-04-10T15:36:12Z</time>
      </trkpt>
      <trkpt lat="43.421647" lon="2.426551">
        <ele>911.3</ele>
        <time>2014-04-10T15:36:30Z</time>
      </trkpt>
      <trkpt lat="43.421729" lon="2.426607">
        <ele>913.0</ele>
        <time>2014-04-10T15:36:50Z</time>
      </trkpt>
      <trkpt lat="43.421807" lon="2.426652">
        <ele>914.7</ele>
        <time>2014-04-10T15:37:05Z</time>
      </trkpt>
      <trkpt lat="43.421885" lon="2.426704">
        <ele>915.8</ele>
        <time>2014-04-10T15:37:22Z</time>
      </trkpt>
      <trkpt lat="43.421970" lon="2.426636">
        <ele>918.3</ele>
        <time>2014-04-10T15:37:41Z</time>
      </trkpt>
      <trkpt lat="43.422033" lon="2.426519">
        <ele>921.2</ele>
        <time>2014-04-10T15:38:00Z</time>
      </trkpt>
      <trkpt lat="43.422147" lon="2.426443">
        <ele>923.4</ele>
        <time>2014-04-10T15:38:20Z</time>
      </trkpt>
      <trkpt lat="43.422252" lon="2.426356">
        <ele>924.5</ele>
        <time>2014-04-10T15:38:39Z</time>
      </trkpt>
      <trkpt lat="43.422356" lon="2.426260">
        <ele>924.2</ele>
        <time>2014-04-10T15:38:56Z</time>
      </trkpt>
      <trkpt lat="43.422450" lon="2.426213">
        <ele>924.0</ele>
        <time>2014-04-10T15:39:11Z</time>
      </trkpt>
      <trkpt lat="43.422574" lon="2.426218">
        <ele>925.9</ele>
        <time>2014-04-10T15:39:30Z</time>
      </trkpt>
      <trkpt lat="43.422691" lon="2.426192">
        <ele>927.6</ele>
        <time>2014-04-10T15:39:47Z</time>
      </trkpt>
      <trkpt lat="43.422770" lon="2.426174">
        <ele>927.5</ele>
        <time>2014-04-10T15:40:03Z</time>
      </trkpt>
      <trkpt lat="43.422864" lon="2.426263">
        <ele>928.9</ele>
        <time>2014-04-10T15:40:19Z</time>
      </trkpt>
      <trkpt lat="43.422894" lon="2.426426">
        <ele>932.0</ele>
        <time>2014-04-10T15:40:35Z</time>
      </trkpt>
      <trkpt lat="43.422889" lon="2.426571">
        <ele>934.1</ele>
        <time>2014-04-10T15:40:47Z</time>
      </trkpt>
      <trkpt lat="43.422906" lon="2.426717">
        <ele>936.9</ele>
        <time>2014-04-10T15:41:01Z</time>
      </trkpt>
      <trkpt lat="43.422963" lon="2.426880">
        <ele>939.8</ele>
        <time>2014-04-10T15:41:18Z</time>
      </trkpt>
      <trkpt lat="43.423033" lon="2.427044">
        <ele>942.4</ele>
        <time>2014-04-10T15:41:34Z</time>
      </trkpt>
      <trkpt lat="43.423131" lon="2.427155">
        <ele>945.8</ele>
        <time>2014-04-10T15:41:52Z</time>
      </trkpt>
      <trkpt lat="43.423185" lon="2.427288">
        <ele>948.4</ele>
        <time>2014-04-10T15:42:08Z</time>
      </trkpt>
      <trkpt lat="43.423171" lon="2.427447">
        <ele>952.1</ele>
        <time>2014-04-10T15:42:25Z</time>
      </trkpt>
      <trkpt lat="43.423230" lon="2.427606">
        <ele>954.8</ele>
        <time>2014-04-10T15:42:39Z</time>
      </trkpt>
      <trkpt lat="43.423180" lon="2.427748">
        <ele>958.4</ele>
        <time>2014-04-10T15:42:55Z</time>
      </trkpt>
      <trkpt lat="43.423112" lon="2.427899">
        <ele>959.8</ele>
        <time>2014-04-10T15:43:07Z</time>
      </trkpt>
      <trkpt lat="43.423162" lon="2.428087">
        <ele>962.3</ele>
        <time>2014-04-10T15:43:22Z</time>
      </trkpt>
      <trkpt lat="43.423193" lon="2.428249">
        <ele>964.8</ele>
        <time>2014-04-10T15:43:35Z</time>
      </trkpt>
      <trkpt lat="43.423240" lon="2.428390">
        <ele>967.7</ele>
        <time>2014-04-10T15:43:49Z</time>
      </trkpt>
      <trkpt lat="43.423317" lon="2.428526">
        <ele>971.0</ele>
        <time>2014-04-10T15:44:04Z</time>
      </trkpt>
      <trkpt lat="43.423373" lon="2.428638">
        <ele>974.0</ele>
        <time>2014-04-10T15:44:19Z</time>
      </trkpt>
      <trkpt lat="43.423425" lon="2.428766">
        <ele>977.2</ele>
        <time>2014-04-10T15:44:35Z</time>
      </trkpt>
      <trkpt lat="43.423466" lon="2.428921">
        <ele>980.3</ele>
        <time>2014-04-10T15:44:52Z</time>
      </trkpt>
      <trkpt lat="43.423492" lon="2.429088">
        <ele>983.5</ele>
        <time>2014-04-10T15:45:08Z</time>
      </trkpt>
      <trkpt lat="43.423596" lon="2.429169">
        <ele>985.7</ele>
        <time>2014-04-10T15:45:21Z</time>
      </trkpt>
      <trkpt lat="43.423668" lon="2.429281">
        <ele>988.2</ele>
        <time>2014-04-10T15:45:33Z</time>
      </trkpt>
      <trkpt lat="43.423748" lon="2.429370">
        <ele>991.0</ele>
        <time>2014-04-10T15:45:46Z</time>
      </trkpt>
      <trkpt lat="43.423767" lon="2.429515">
        <ele>993.9</ele>
        <time>2014-04-10T15:46:00Z</time>
      </trkpt>
      <trkpt lat="43.423743" lon="2.429675">
        <ele>996.1</ele>
        <time>2014-04-10T15:46:13Z</time>
      </trkpt>
      <trkpt lat="43.423690" lon="2.429816">
        <ele>997.7</ele>
        <time>2014-04-10T15:46:26Z</time>
      </trkpt>
      <trkpt lat="43.423670" lon="2.429957">
        <ele>999.8</ele>
        <time>2014-04-10T15:46:38Z</time>
      </trkpt>
      <trkpt lat="43.423625" lon="2.430116">
        <ele>1002.3</ele>
        <time>2014-04-10T15:46:50Z</time>
      </trkpt>
      <trkpt lat="43.423597" lon="2.430255">
        <ele>1004.3</ele>
        <time>2014-04-10T15:47:03Z</time>
      </trkpt>
      <trkpt lat="43.423471" lon="2.430881">
        <ele>1001.3</ele>
        <time>2014-04-10T15:49:03Z</time>
      </trkpt>
      <trkpt lat="43.423483" lon="2.430895">
        <ele>1003.4</ele>
        <time>2014-04-10T15:50:14Z</time>
      </trkpt>
      <trkpt lat="43.423464" lon="2.431033">
        <ele>1005.6</ele>
        <time>2014-04-10T15:50:29Z</time>
      </trkpt>
      <trkpt lat="43.423431" lon="2.431196">
        <ele>1007.9</ele>
        <time>2014-04-10T15:50:48Z</time>
      </trkpt>
      <trkpt lat="43.423411" lon="2.431363">
        <ele>1009.9</ele>
        <time>2014-04-10T15:51:01Z</time>
      </trkpt>
      <trkpt lat="43.423332" lon="2.431511">
        <ele>1012.4</ele>
        <time>2014-04-10T15:51:16Z</time>
      </trkpt>
      <trkpt lat="43.423305" lon="2.431589">
        <ele>1014.9</ele>
        <time>2014-04-10T15:51:56Z</time>
      </trkpt>
      <trkpt lat="43.423250" lon="2.431725">
        <ele>1015.6</ele>
        <time>2014-04-10T15:52:09Z</time>
      </trkpt>
      <trkpt lat="43.423251" lon="2.431876">
        <ele>1017.2</ele>
        <time>2014-04-10T15:52:21Z</time>
      </trkpt>
      <trkpt lat="43.423243" lon="2.432037">
        <ele>1019.4</ele>
        <time>2014-04-10T15:52:33Z</time>
      </trkpt>
      <trkpt lat="43.423224" lon="2.432194">
        <ele>1021.2</ele>
        <time>2014-04-10T15:52:45Z</time>
      </trkpt>
      <trkpt lat="43.423197" lon="2.432340">
        <ele>1022.6</ele>
        <time>2014-04-10T15:52:55Z</time>
      </trkpt>
      <trkpt lat="43.423197" lon="2.432458">
        <ele>1023.9</ele>
        <time>2014-04-10T15:53:04Z</time>
      </trkpt>
      <trkpt lat="43.423220" lon="2.432590">
        <ele>1025.5</ele>
        <time>2014-04-10T15:53:15Z</time>
      </trkpt>
      <trkpt lat="43.423260" lon="2.432699">
        <ele>1027.1</ele>
        <time>2014-04-10T15:53:25Z</time>
      </trkpt>
      <trkpt lat="43.423295" lon="2.432809">
        <ele>1028.2</ele>
        <time>2014-04-10T15:53:34Z</time>
      </trkpt>
      <trkpt lat="43.423257" lon="2.432954">
        <ele>1029.5</ele>
        <time>2014-04-10T15:53:45Z</time>
      </trkpt>
      <trkpt lat="43.423171" lon="2.433074">
        <ele>1031.0</ele>
        <time>2014-04-10T15:53:56Z</time>
      </trkpt>
      <trkpt lat="43.423096" lon="2.433183">
        <ele>1032.1</ele>
        <time>2014-04-10T15:54:06Z</time>
      </trkpt>
      <trkpt lat="43.423043" lon="2.433309">
        <ele>1033.5</ele>
        <time>2014-04-10T15:54:17Z</time>
      </trkpt>
      <trkpt lat="43.422938" lon="2.433359">
        <ele>1034.4</ele>
        <time>2014-04-10T15:54:29Z</time>
      </trkpt>
      <trkpt lat="43.422838" lon="2.433413">
        <ele>1035.0</ele>
        <time>2014-04-10T15:54:41Z</time>
      </trkpt>
      <trkpt lat="43.422720" lon="2.433458">
        <ele>1035.1</ele>
        <time>2014-04-10T15:54:52Z</time>
      </trkpt>
      <trkpt lat="43.422605" lon="2.433531">
        <ele>1035.5</ele>
        <time>2014-04-10T15:55:04Z</time>
      </trkpt>
      <trkpt lat="43.422544" lon="2.433654">
        <ele>1035.5</ele>
        <time>2014-04-10T15:55:15Z</time>
      </trkpt>
      <trkpt lat="43.422625" lon="2.433751">
        <ele>1036.5</ele>
        <time>2014-04-10T15:55:24Z</time>
      </trkpt>
      <trkpt lat="43.422652" lon="2.433896">
        <ele>1038.9</ele>
        <time>2014-04-10T15:55:35Z</time>
      </trkpt>
      <trkpt lat="43.422675" lon="2.434058">
        <ele>1040.6</ele>
        <time>2014-04-10T15:55:46Z</time>
      </trkpt>
      <trkpt lat="43.422713" lon="2.434183">
        <ele>1042.5</ele>
        <time>2014-04-10T15:55:58Z</time>
      </trkpt>
      <trkpt lat="43.422762" lon="2.434322">
        <ele>1044.2</ele>
        <time>2014-04-10T15:56:13Z</time>
      </trkpt>
      <trkpt lat="43.422757" lon="2.434468">
        <ele>1045.8</ele>
        <time>2014-04-10T15:56:26Z</time>
      </trkpt>
      <trkpt lat="43.422716" lon="2.434619">
        <ele>1047.3</ele>
        <time>2014-04-10T15:56:38Z</time>
      </trkpt>
      <trkpt lat="43.422656" lon="2.434739">
        <ele>1048.3</ele>
        <time>2014-04-10T15:56:48Z</time>
      </trkpt>
      <trkpt lat="43.422588" lon="2.434850">
        <ele>1048.7</ele>
        <time>2014-04-10T15:56:57Z</time>
      </trkpt>
      <trkpt lat="43.422523" lon="2.434948">
        <ele>1049.0</ele>
        <time>2014-04-10T15:57:06Z</time>
      </trkpt>
      <trkpt lat="43.422455" lon="2.435048">
        <ele>1049.2</ele>
        <time>2014-04-10T15:57:16Z</time>
      </trkpt>
      <trkpt lat="43.422398" lon="2.435167">
        <ele>1049.2</ele>
        <time>2014-04-10T15:57:24Z</time>
      </trkpt>
      <trkpt lat="43.422381" lon="2.435311">
        <ele>1049.5</ele>
        <time>2014-04-10T15:57:41Z</time>
      </trkpt>
      <trkpt lat="43.422435" lon="2.435434">
        <ele>1049.3</ele>
        <time>2014-04-10T15:57:51Z</time>
      </trkpt>
      <trkpt lat="43.422431" lon="2.435556">
        <ele>1049.3</ele>
        <time>2014-04-10T15:57:59Z</time>
      </trkpt>
      <trkpt lat="43.422401" lon="2.435690">
        <ele>1049.5</ele>
        <time>2014-04-10T15:58:08Z</time>
      </trkpt>
      <trkpt lat="43.422367" lon="2.435823">
        <ele>1048.9</ele>
        <time>2014-04-10T15:58:17Z</time>
      </trkpt>
      <trkpt lat="43.422316" lon="2.435951">
        <ele>1048.8</ele>
        <time>2014-04-10T15:58:25Z</time>
      </trkpt>
      <trkpt lat="43.422279" lon="2.436068">
        <ele>1048.8</ele>
        <time>2014-04-10T15:58:34Z</time>
      </trkpt>
      <trkpt lat="43.422230" lon="2.436210">
        <ele>1049.0</ele>
        <time>2014-04-10T15:58:43Z</time>
      </trkpt>
      <trkpt lat="43.422184" lon="2.436331">
        <ele>1049.2</ele>
        <time>2014-04-10T15:58:52Z</time>
      </trkpt>
      <trkpt lat="43.422141" lon="2.436455">
        <ele>1049.4</ele>
        <time>2014-04-10T15:59:02Z</time>
      </trkpt>
      <trkpt lat="43.422092" lon="2.436577">
        <ele>1049.8</ele>
        <time>2014-04-10T15:59:11Z</time>
      </trkpt>
      <trkpt lat="43.422042" lon="2.436695">
        <ele>1050.3</ele>
        <time>2014-04-10T15:59:21Z</time>
      </trkpt>
      <trkpt lat="43.421989" lon="2.436805">
        <ele>1050.6</ele>
        <time>2014-04-10T15:59:31Z</time>
      </trkpt>
      <trkpt lat="43.421953" lon="2.436939">
        <ele>1051.0</ele>
        <time>2014-04-10T15:59:42Z</time>
      </trkpt>
      <trkpt lat="43.421916" lon="2.437068">
        <ele>1051.3</ele>
        <time>2014-04-10T15:59:51Z</time>
      </trkpt>
      <trkpt lat="43.421877" lon="2.437188">
        <ele>1051.7</ele>
        <time>2014-04-10T16:00:01Z</time>
      </trkpt>
      <trkpt lat="43.421825" lon="2.437296">
        <ele>1051.2</ele>
        <time>2014-04-10T16:00:11Z</time>
      </trkpt>
      <trkpt lat="43.421842" lon="2.437424">
        <ele>1050.7</ele>
        <time>2014-04-10T16:00:35Z</time>
      </trkpt>
      <trkpt lat="43.421849" lon="2.437552">
        <ele>1050.2</ele>
        <time>2014-04-10T16:00:47Z</time>
      </trkpt>
      <trkpt lat="43.421807" lon="2.437672">
        <ele>1048.4</ele>
        <time>2014-04-10T16:01:01Z</time>
      </trkpt>
      <trkpt lat="43.421780" lon="2.437796">
        <ele>1046.8</ele>
        <time>2014-04-10T16:01:15Z</time>
      </trkpt>
      <trkpt lat="43.421851" lon="2.437904">
        <ele>1044.6</ele>
        <time>2014-04-10T16:01:30Z</time>
      </trkpt>
      <trkpt lat="43.421910" lon="2.438027">
        <ele>1041.8</ele>
        <time>2014-04-10T16:01:44Z</time>
      </trkpt>
      <trkpt lat="43.421909" lon="2.438196">
        <ele>1039.6</ele>
        <time>2014-04-10T16:01:58Z</time>
      </trkpt>
      <trkpt lat="43.421913" lon="2.438372">
        <ele>1037.5</ele>
        <time>2014-04-10T16:02:08Z</time>
      </trkpt>
      <trkpt lat="43.421986" lon="2.438550">
        <ele>1035.8</ele>
        <time>2014-04-10T16:02:18Z</time>
      </trkpt>
      <trkpt lat="43.422058" lon="2.438664">
        <ele>1034.5</ele>
        <time>2014-04-10T16:02:27Z</time>
      </trkpt>
      <trkpt lat="43.422117" lon="2.438777">
        <ele>1033.0</ele>
        <time>2014-04-10T16:02:37Z</time>
      </trkpt>
      <trkpt lat="43.422162" lon="2.438899">
        <ele>1031.6</ele>
        <time>2014-04-10T16:02:47Z</time>
      </trkpt>
      <trkpt lat="43.422200" lon="2.439018">
        <ele>1029.4</ele>
        <time>2014-04-10T16:02:58Z</time>
      </trkpt>
      <trkpt lat="43.422244" lon="2.439124">
        <ele>1027.9</ele>
        <time>2014-04-10T16:03:08Z</time>
      </trkpt>
      <trkpt lat="43.422309" lon="2.439233">
        <ele>1026.5</ele>
        <time>2014-04-10T16:03:18Z</time>
      </trkpt>
      <trkpt lat="43.422362" lon="2.439329">
        <ele>1025.5</ele>
        <time>2014-04-10T16:03:27Z</time>
      </trkpt>
      <trkpt lat="43.422442" lon="2.439403">
        <ele>1024.9</ele>
        <time>2014-04-10T16:03:37Z</time>
      </trkpt>
      <trkpt lat="43.422486" lon="2.439509">
        <ele>1023.7</ele>
        <time>2014-04-10T16:03:45Z</time>
      </trkpt>
      <trkpt lat="43.422503" lon="2.439646">
        <ele>1022.2</ele>
        <time>2014-04-10T16:03:54Z</time>
      </trkpt>
      <trkpt lat="43.422479" lon="2.439779">
        <ele>1021.2</ele>
        <time>2014-04-10T16:04:03Z</time>
      </trkpt>
      <trkpt lat="43.422448" lon="2.439916">
        <ele>1019.9</ele>
        <time>2014-04-10T16:04:12Z</time>
      </trkpt>
      <trkpt lat="43.422501" lon="2.440041">
        <ele>1018.8</ele>
        <time>2014-04-10T16:04:21Z</time>
      </trkpt>
      <trkpt lat="43.422561" lon="2.440159">
        <ele>1018.1</ele>
        <time>2014-04-10T16:04:28Z</time>
      </trkpt>
      <trkpt lat="43.422620" lon="2.440254">
        <ele>1017.5</ele>
        <time>2014-04-10T16:04:34Z</time>
      </trkpt>
      <trkpt lat="43.422707" lon="2.440359">
        <ele>1017.0</ele>
        <time>2014-04-10T16:04:42Z</time>
      </trkpt>
      <trkpt lat="43.422766" lon="2.440480">
        <ele>1016.5</ele>
        <time>2014-04-10T16:04:51Z</time>
      </trkpt>
      <trkpt lat="43.422810" lon="2.440587">
        <ele>1016.2</ele>
        <time>2014-04-10T16:04:58Z</time>
      </trkpt>
      <trkpt lat="43.422854" lon="2.440714">
        <ele>1016.3</ele>
        <time>2014-04-10T16:05:06Z</time>
      </trkpt>
      <trkpt lat="43.422891" lon="2.440835">
        <ele>1016.5</ele>
        <time>2014-04-10T16:05:14Z</time>
      </trkpt>
      <trkpt lat="43.422913" lon="2.440962">
        <ele>1017.0</ele>
        <time>2014-04-10T16:05:22Z</time>
      </trkpt>
      <trkpt lat="43.422935" lon="2.441103">
        <ele>1017.8</ele>
        <time>2014-04-10T16:05:31Z</time>
      </trkpt>
      <trkpt lat="43.422941" lon="2.441239">
        <ele>1018.4</ele>
        <time>2014-04-10T16:05:41Z</time>
      </trkpt>
      <trkpt lat="43.422974" lon="2.441262">
        <ele>1019.2</ele>
        <time>2014-04-10T16:05:53Z</time>
      </trkpt>
      <trkpt lat="43.423063" lon="2.441326">
        <ele>1019.4</ele>
        <time>2014-04-10T16:06:03Z</time>
      </trkpt>
      <trkpt lat="43.423155" lon="2.441364">
        <ele>1020.5</ele>
        <time>2014-04-10T16:06:14Z</time>
      </trkpt>
      <trkpt lat="43.423177" lon="2.441502">
        <ele>1021.2</ele>
        <time>2014-04-10T16:06:25Z</time>
      </trkpt>
      <trkpt lat="43.423140" lon="2.441653">
        <ele>1022.5</ele>
        <time>2014-04-10T16:06:34Z</time>
      </trkpt>
      <trkpt lat="43.423155" lon="2.441796">
        <ele>1024.0</ele>
        <time>2014-04-10T16:06:43Z</time>
      </trkpt>
      <trkpt lat="43.423153" lon="2.441922">
        <ele>1024.9</ele>
        <time>2014-04-10T16:06:51Z</time>
      </trkpt>
      <trkpt lat="43.423110" lon="2.442049">
        <ele>1026.1</ele>
        <time>2014-04-10T16:07:01Z</time>
      </trkpt>
      <trkpt lat="43.423043" lon="2.442157">
        <ele>1026.9</ele>
        <time>2014-04-10T16:07:10Z</time>
      </trkpt>
      <trkpt lat="43.422990" lon="2.442279">
        <ele>1027.7</ele>
        <time>2014-04-10T16:07:20Z</time>
      </trkpt>
      <trkpt lat="43.422941" lon="2.442406">
        <ele>1028.6</ele>
        <time>2014-04-10T16:07:29Z</time>
      </trkpt>
      <trkpt lat="43.422873" lon="2.442518">
        <ele>1029.7</ele>
        <time>2014-04-10T16:07:38Z</time>
      </trkpt>
      <trkpt lat="43.422818" lon="2.442647">
        <ele>1030.5</ele>
        <time>2014-04-10T16:07:48Z</time>
      </trkpt>
      <trkpt lat="43.422779" lon="2.442797">
        <ele>1031.6</ele>
        <time>2014-04-10T16:07:58Z</time>
      </trkpt>
      <trkpt lat="43.422741" lon="2.442933">
        <ele>1032.4</ele>
        <time>2014-04-10T16:08:08Z</time>
      </trkpt>
      <trkpt lat="43.422731" lon="2.443068">
        <ele>1033.4</ele>
        <time>2014-04-10T16:08:20Z</time>
      </trkpt>
      <trkpt lat="43.422690" lon="2.443207">
        <ele>1034.4</ele>
        <time>2014-04-10T16:08:32Z</time>
      </trkpt>
      <trkpt lat="43.422599" lon="2.443356">
        <ele>1034.6</ele>
        <time>2014-04-10T16:08:43Z</time>
      </trkpt>
      <trkpt lat="43.422538" lon="2.443507">
        <ele>1034.9</ele>
        <time>2014-04-10T16:08:52Z</time>
      </trkpt>
      <trkpt lat="43.422473" lon="2.443655">
        <ele>1035.6</ele>
        <time>2014-04-10T16:09:07Z</time>
      </trkpt>
      <trkpt lat="43.422404" lon="2.443845">
        <ele>1036.2</ele>
        <time>2014-04-10T16:09:21Z</time>
      </trkpt>
      <trkpt lat="43.422335" lon="2.444000">
        <ele>1036.6</ele>
        <time>2014-04-10T16:09:30Z</time>
      </trkpt>
      <trkpt lat="43.422264" lon="2.444141">
        <ele>1036.8</ele>
        <time>2014-04-10T16:09:43Z</time>
      </trkpt>
      <trkpt lat="43.422205" lon="2.444320">
        <ele>1036.7</ele>
        <time>2014-04-10T16:09:57Z</time>
      </trkpt>
      <trkpt lat="43.422137" lon="2.444498">
        <ele>1037.1</ele>
        <time>2014-04-10T16:10:10Z</time>
      </trkpt>
      <trkpt lat="43.422093" lon="2.444721">
        <ele>1037.5</ele>
        <time>2014-04-10T16:10:27Z</time>
      </trkpt>
      <trkpt lat="43.422034" lon="2.444878">
        <ele>1037.8</ele>
        <time>2014-04-10T16:10:40Z</time>
      </trkpt>
      <trkpt lat="43.421957" lon="2.445041">
        <ele>1037.2</ele>
        <time>2014-04-10T16:10:52Z</time>
      </trkpt>
      <trkpt lat="43.421857" lon="2.445280">
        <ele>1036.8</ele>
        <time>2014-04-10T16:11:05Z</time>
      </trkpt>
      <trkpt lat="43.421767" lon="2.445470">
        <ele>1036.6</ele>
        <time>2014-04-10T16:11:18Z</time>
      </trkpt>
      <trkpt lat="43.421657" lon="2.445685">
        <ele>1036.3</ele>
        <time>2014-04-10T16:11:31Z</time>
      </trkpt>
      <trkpt lat="43.421575" lon="2.445872">
        <ele>1035.1</ele>
        <time>2014-04-10T16:11:45Z</time>
      </trkpt>
      <trkpt lat="43.421555" lon="2.446105">
        <ele>1035.1</ele>
        <time>2014-04-10T16:12:00Z</time>
      </trkpt>
      <trkpt lat="43.421505" lon="2.446274">
        <ele>1035.1</ele>
        <time>2014-04-10T16:12:13Z</time>
      </trkpt>
      <trkpt lat="43.421417" lon="2.446419">
        <ele>1034.3</ele>
        <time>2014-04-10T16:12:23Z</time>
      </trkpt>
      <trkpt lat="43.421325" lon="2.446607">
        <ele>1032.6</ele>
        <time>2014-04-10T16:12:37Z</time>
      </trkpt>
      <trkpt lat="43.421252" lon="2.446855">
        <ele>1030.6</ele>
        <time>2014-04-10T16:12:54Z</time>
      </trkpt>
      <trkpt lat="43.421156" lon="2.447037">
        <ele>1028.6</ele>
        <time>2014-04-10T16:13:12Z</time>
      </trkpt>
      <trkpt lat="43.421077" lon="2.447306">
        <ele>1025.9</ele>
        <time>2014-04-10T16:13:31Z</time>
      </trkpt>
      <trkpt lat="43.421159" lon="2.447493">
        <ele>1027.6</ele>
        <time>2014-04-10T16:13:47Z</time>
      </trkpt>
      <trkpt lat="43.421265" lon="2.447608">
        <ele>1031.3</ele>
        <time>2014-04-10T16:14:02Z</time>
      </trkpt>
      <trkpt lat="43.421403" lon="2.447701">
        <ele>1035.6</ele>
        <time>2014-04-10T16:14:22Z</time>
      </trkpt>
      <trkpt lat="43.421507" lon="2.447822">
        <ele>1039.3</ele>
        <time>2014-04-10T16:14:39Z</time>
      </trkpt>
      <trkpt lat="43.421653" lon="2.447898">
        <ele>1042.5</ele>
        <time>2014-04-10T16:14:55Z</time>
      </trkpt>
      <trkpt lat="43.421792" lon="2.447918">
        <ele>1045.4</ele>
        <time>2014-04-10T16:15:13Z</time>
      </trkpt>
      <trkpt lat="43.421868" lon="2.447917">
        <ele>1047.7</ele>
        <time>2014-04-10T16:15:31Z</time>
      </trkpt>
      <trkpt lat="43.421967" lon="2.447917">
        <ele>1051.0</ele>
        <time>2014-04-10T16:15:48Z</time>
      </trkpt>
      <trkpt lat="43.422068" lon="2.448008">
        <ele>1053.7</ele>
        <time>2014-04-10T16:16:03Z</time>
      </trkpt>
      <trkpt lat="43.422176" lon="2.448109">
        <ele>1056.4</ele>
        <time>2014-04-10T16:16:18Z</time>
      </trkpt>
      <trkpt lat="43.422270" lon="2.448214">
        <ele>1059.0</ele>
        <time>2014-04-10T16:16:32Z</time>
      </trkpt>
      <trkpt lat="43.422366" lon="2.448275">
        <ele>1062.2</ele>
        <time>2014-04-10T16:16:46Z</time>
      </trkpt>
      <trkpt lat="43.422481" lon="2.448356">
        <ele>1065.4</ele>
        <time>2014-04-10T16:17:02Z</time>
      </trkpt>
      <trkpt lat="43.422576" lon="2.448425">
        <ele>1067.8</ele>
        <time>2014-04-10T16:17:15Z</time>
      </trkpt>
      <trkpt lat="43.422686" lon="2.448519">
        <ele>1069.8</ele>
        <time>2014-04-10T16:17:27Z</time>
      </trkpt>
      <trkpt lat="43.422790" lon="2.448609">
        <ele>1071.4</ele>
        <time>2014-04-10T16:17:39Z</time>
      </trkpt>
      <trkpt lat="43.422902" lon="2.448644">
        <ele>1072.7</ele>
        <time>2014-04-10T16:17:49Z</time>
      </trkpt>
      <trkpt lat="43.423000" lon="2.448725">
        <ele>1074.2</ele>
        <time>2014-04-10T16:18:01Z</time>
      </trkpt>
      <trkpt lat="43.423083" lon="2.448816">
        <ele>1076.0</ele>
        <time>2014-04-10T16:18:12Z</time>
      </trkpt>
      <trkpt lat="43.423175" lon="2.448904">
        <ele>1077.8</ele>
        <time>2014-04-10T16:18:25Z</time>
      </trkpt>
      <trkpt lat="43.423270" lon="2.448970">
        <ele>1078.7</ele>
        <time>2014-04-10T16:18:34Z</time>
      </trkpt>
      <trkpt lat="43.423363" lon="2.449042">
        <ele>1079.1</ele>
        <time>2014-04-10T16:18:43Z</time>
      </trkpt>
      <trkpt lat="43.423452" lon="2.449111">
        <ele>1080.2</ele>
        <time>2014-04-10T16:18:52Z</time>
      </trkpt>
      <trkpt lat="43.423544" lon="2.449161">
        <ele>1081.1</ele>
        <time>2014-04-10T16:19:00Z</time>
      </trkpt>
      <trkpt lat="43.423641" lon="2.449226">
        <ele>1082.1</ele>
        <time>2014-04-10T16:19:10Z</time>
      </trkpt>
      <trkpt lat="43.423718" lon="2.449294">
        <ele>1082.8</ele>
        <time>2014-04-10T16:19:18Z</time>
      </trkpt>
      <trkpt lat="43.423797" lon="2.449369">
        <ele>1083.5</ele>
        <time>2014-04-10T16:19:26Z</time>
      </trkpt>
      <trkpt lat="43.423895" lon="2.449444">
        <ele>1084.8</ele>
        <time>2014-04-10T16:19:36Z</time>
      </trkpt>
      <trkpt lat="43.423983" lon="2.449520">
        <ele>1085.5</ele>
        <time>2014-04-10T16:19:45Z</time>
      </trkpt>
      <trkpt lat="43.424063" lon="2.449608">
        <ele>1086.1</ele>
        <time>2014-04-10T16:19:54Z</time>
      </trkpt>
      <trkpt lat="43.424144" lon="2.449662">
        <ele>1086.3</ele>
        <time>2014-04-10T16:20:01Z</time>
      </trkpt>
      <trkpt lat="43.424236" lon="2.449701">
        <ele>1086.8</ele>
        <time>2014-04-10T16:20:09Z</time>
      </trkpt>
      <trkpt lat="43.424318" lon="2.449757">
        <ele>1087.2</ele>
        <time>2014-04-10T16:20:17Z</time>
      </trkpt>
      <trkpt lat="43.424403" lon="2.449826">
        <ele>1087.5</ele>
        <time>2014-04-10T16:20:25Z</time>
      </trkpt>
      <trkpt lat="43.424491" lon="2.449881">
        <ele>1087.7</ele>
        <time>2014-04-10T16:20:33Z</time>
      </trkpt>
      <trkpt lat="43.424579" lon="2.449918">
        <ele>1087.8</ele>
        <time>2014-04-10T16:20:42Z</time>
      </trkpt>
      <trkpt lat="43.424673" lon="2.449973">
        <ele>1088.7</ele>
        <time>2014-04-10T16:20:51Z</time>
      </trkpt>
      <trkpt lat="43.424766" lon="2.450023">
        <ele>1088.8</ele>
        <time>2014-04-10T16:21:00Z</time>
      </trkpt>
      <trkpt lat="43.424864" lon="2.450077">
        <ele>1088.8</ele>
        <time>2014-04-10T16:21:09Z</time>
      </trkpt>
      <trkpt lat="43.424951" lon="2.450133">
        <ele>1089.2</ele>
        <time>2014-04-10T16:21:16Z</time>
      </trkpt>
      <trkpt lat="43.425037" lon="2.450178">
        <ele>1089.2</ele>
        <time>2014-04-10T16:21:24Z</time>
      </trkpt>
      <trkpt lat="43.425125" lon="2.450235">
        <ele>1089.1</ele>
        <time>2014-04-10T16:21:33Z</time>
      </trkpt>
      <trkpt lat="43.425212" lon="2.450286">
        <ele>1089.2</ele>
        <time>2014-04-10T16:21:41Z</time>
      </trkpt>
      <trkpt lat="43.425303" lon="2.450343">
        <ele>1089.4</ele>
        <time>2014-04-10T16:21:49Z</time>
      </trkpt>
      <trkpt lat="43.425395" lon="2.450397">
        <ele>1089.7</ele>
        <time>2014-04-10T16:21:58Z</time>
      </trkpt>
      <trkpt lat="43.425466" lon="2.450461">
        <ele>1090.0</ele>
        <time>2014-04-10T16:22:05Z</time>
      </trkpt>
      <trkpt lat="43.425540" lon="2.450524">
        <ele>1090.1</ele>
        <time>2014-04-10T16:22:13Z</time>
      </trkpt>
      <trkpt lat="43.425619" lon="2.450597">
        <ele>1090.2</ele>
        <time>2014-04-10T16:22:22Z</time>
      </trkpt>
      <trkpt lat="43.425694" lon="2.450690">
        <ele>1090.6</ele>
        <time>2014-04-10T16:22:30Z</time>
      </trkpt>
      <trkpt lat="43.425770" lon="2.450775">
        <ele>1090.8</ele>
        <time>2014-04-10T16:22:39Z</time>
      </trkpt>
      <trkpt lat="43.425840" lon="2.450854">
        <ele>1091.1</ele>
        <time>2014-04-10T16:22:47Z</time>
      </trkpt>
      <trkpt lat="43.425907" lon="2.450929">
        <ele>1091.2</ele>
        <time>2014-04-10T16:22:55Z</time>
      </trkpt>
      <trkpt lat="43.425971" lon="2.451023">
        <ele>1091.4</ele>
        <time>2014-04-10T16:23:04Z</time>
      </trkpt>
      <trkpt lat="43.426028" lon="2.451110">
        <ele>1092.0</ele>
        <time>2014-04-10T16:23:12Z</time>
      </trkpt>
      <trkpt lat="43.426097" lon="2.451196">
        <ele>1092.1</ele>
        <time>2014-04-10T16:23:20Z</time>
      </trkpt>
      <trkpt lat="43.426172" lon="2.451281">
        <ele>1092.7</ele>
        <time>2014-04-10T16:23:29Z</time>
      </trkpt>
      <trkpt lat="43.426243" lon="2.451379">
        <ele>1093.5</ele>
        <time>2014-04-10T16:23:38Z</time>
      </trkpt>
      <trkpt lat="43.426298" lon="2.451493">
        <ele>1094.5</ele>
        <time>2014-04-10T16:23:48Z</time>
      </trkpt>
      <trkpt lat="43.426379" lon="2.451587">
        <ele>1095.6</ele>
        <time>2014-04-10T16:23:58Z</time>
      </trkpt>
      <trkpt lat="43.426439" lon="2.451696">
        <ele>1096.2</ele>
        <time>2014-04-10T16:24:06Z</time>
      </trkpt>
      <trkpt lat="43.426507" lon="2.451771">
        <ele>1096.9</ele>
        <time>2014-04-10T16:24:14Z</time>
      </trkpt>
      <trkpt lat="43.426575" lon="2.451869">
        <ele>1098.0</ele>
        <time>2014-04-10T16:24:23Z</time>
      </trkpt>
      <trkpt lat="43.426646" lon="2.451972">
        <ele>1099.3</ele>
        <time>2014-04-10T16:24:32Z</time>
      </trkpt>
      <trkpt lat="43.426727" lon="2.452054">
        <ele>1100.3</ele>
        <time>2014-04-10T16:24:40Z</time>
      </trkpt>
      <trkpt lat="43.426801" lon="2.452143">
        <ele>1101.7</ele>
        <time>2014-04-10T16:24:49Z</time>
      </trkpt>
      <trkpt lat="43.426862" lon="2.452225">
        <ele>1102.5</ele>
        <time>2014-04-10T16:24:56Z</time>
      </trkpt>
      <trkpt lat="43.426897" lon="2.452339">
        <ele>1103.5</ele>
        <time>2014-04-10T16:25:04Z</time>
      </trkpt>
      <trkpt lat="43.426926" lon="2.452451">
        <ele>1104.3</ele>
        <time>2014-04-10T16:25:12Z</time>
      </trkpt>
      <trkpt lat="43.426969" lon="2.452569">
        <ele>1105.4</ele>
        <time>2014-04-10T16:25:20Z</time>
      </trkpt>
      <trkpt lat="43.426983" lon="2.452699">
        <ele>1106.9</ele>
        <time>2014-04-10T16:25:29Z</time>
      </trkpt>
      <trkpt lat="43.427016" lon="2.452810">
        <ele>1108.0</ele>
        <time>2014-04-10T16:25:37Z</time>
      </trkpt>
      <trkpt lat="43.427053" lon="2.452930">
        <ele>1108.9</ele>
        <time>2014-04-10T16:25:46Z</time>
      </trkpt>
      <trkpt lat="43.427086" lon="2.453060">
        <ele>1110.3</ele>
        <time>2014-04-10T16:25:55Z</time>
      </trkpt>
      <trkpt lat="43.427120" lon="2.453182">
        <ele>1111.3</ele>
        <time>2014-04-10T16:26:04Z</time>
      </trkpt>
      <trkpt lat="43.427144" lon="2.453330">
        <ele>1112.6</ele>
        <time>2014-04-10T16:26:13Z</time>
      </trkpt>
      <trkpt lat="43.427188" lon="2.453440">
        <ele>1113.7</ele>
        <time>2014-04-10T16:26:22Z</time>
      </trkpt>
      <trkpt lat="43.427211" lon="2.453570">
        <ele>1114.7</ele>
        <time>2014-04-10T16:26:31Z</time>
      </trkpt>
      <trkpt lat="43.427252" lon="2.453686">
        <ele>1115.7</ele>
        <time>2014-04-10T16:26:39Z</time>
      </trkpt>
      <trkpt lat="43.427274" lon="2.453814">
        <ele>1116.9</ele>
        <time>2014-04-10T16:26:47Z</time>
      </trkpt>
      <trkpt lat="43.427295" lon="2.453940">
        <ele>1118.1</ele>
        <time>2014-04-10T16:26:55Z</time>
      </trkpt>
      <trkpt lat="43.427336" lon="2.454060">
        <ele>1119.2</ele>
        <time>2014-04-10T16:27:03Z</time>
      </trkpt>
      <trkpt lat="43.427368" lon="2.454180">
        <ele>1120.4</ele>
        <time>2014-04-10T16:27:11Z</time>
      </trkpt>
      <trkpt lat="43.427397" lon="2.454302">
        <ele>1121.2</ele>
        <time>2014-04-10T16:27:19Z</time>
      </trkpt>
      <trkpt lat="43.427425" lon="2.454430">
        <ele>1122.5</ele>
        <time>2014-04-10T16:27:27Z</time>
      </trkpt>
      <trkpt lat="43.427449" lon="2.454550">
        <ele>1123.3</ele>
        <time>2014-04-10T16:27:35Z</time>
      </trkpt>
      <trkpt lat="43.427450" lon="2.454675">
        <ele>1124.1</ele>
        <time>2014-04-10T16:27:43Z</time>
      </trkpt>
      <trkpt lat="43.427456" lon="2.454813">
        <ele>1125.2</ele>
        <time>2014-04-10T16:27:51Z</time>
      </trkpt>
      <trkpt lat="43.427453" lon="2.454947">
        <ele>1126.1</ele>
        <time>2014-04-10T16:27:59Z</time>
      </trkpt>
      <trkpt lat="43.427439" lon="2.455073">
        <ele>1127.0</ele>
        <time>2014-04-10T16:28:08Z</time>
      </trkpt>
      <trkpt lat="43.427456" lon="2.455197">
        <ele>1128.5</ele>
        <time>2014-04-10T16:28:17Z</time>
      </trkpt>
      <trkpt lat="43.427468" lon="2.455332">
        <ele>1129.1</ele>
        <time>2014-04-10T16:28:26Z</time>
      </trkpt>
      <trkpt lat="43.427466" lon="2.455454">
        <ele>1129.9</ele>
        <time>2014-04-10T16:28:34Z</time>
      </trkpt>
      <trkpt lat="43.427457" lon="2.455588">
        <ele>1130.5</ele>
        <time>2014-04-10T16:28:42Z</time>
      </trkpt>
      <trkpt lat="43.427445" lon="2.455737">
        <ele>1131.7</ele>
        <time>2014-04-10T16:28:51Z</time>
      </trkpt>
      <trkpt lat="43.427432" lon="2.455870">
        <ele>1132.7</ele>
        <time>2014-04-10T16:28:59Z</time>
      </trkpt>
      <trkpt lat="43.427419" lon="2.456006">
        <ele>1133.6</ele>
        <time>2014-04-10T16:29:07Z</time>
      </trkpt>
      <trkpt lat="43.427420" lon="2.456135">
        <ele>1134.2</ele>
        <time>2014-04-10T16:29:15Z</time>
      </trkpt>
      <trkpt lat="43.427443" lon="2.456260">
        <ele>1135.4</ele>
        <time>2014-04-10T16:29:23Z</time>
      </trkpt>
      <trkpt lat="43.427492" lon="2.456397">
        <ele>1136.4</ele>
        <time>2014-04-10T16:29:32Z</time>
      </trkpt>
      <trkpt lat="43.427526" lon="2.456519">
        <ele>1136.9</ele>
        <time>2014-04-10T16:29:39Z</time>
      </trkpt>
      <trkpt lat="43.427562" lon="2.456648">
        <ele>1137.2</ele>
        <time>2014-04-10T16:29:48Z</time>
      </trkpt>
      <trkpt lat="43.427606" lon="2.456766">
        <ele>1137.3</ele>
        <time>2014-04-10T16:29:55Z</time>
      </trkpt>
      <trkpt lat="43.427663" lon="2.456877">
        <ele>1137.7</ele>
        <time>2014-04-10T16:30:03Z</time>
      </trkpt>
      <trkpt lat="43.427664" lon="2.456899">
        <ele>1138.0</ele>
        <time>2014-04-10T16:31:00Z</time>
      </trkpt>
      <trkpt lat="43.427724" lon="2.457001">
        <ele>1138.2</ele>
        <time>2014-04-10T16:31:10Z</time>
      </trkpt>
      <trkpt lat="43.427822" lon="2.457019">
        <ele>1139.1</ele>
        <time>2014-04-10T16:31:24Z</time>
      </trkpt>
      <trkpt lat="43.427910" lon="2.457000">
        <ele>1140.2</ele>
        <time>2014-04-10T16:31:32Z</time>
      </trkpt>
      <trkpt lat="43.427963" lon="2.457082">
        <ele>1141.1</ele>
        <time>2014-04-10T16:31:40Z</time>
      </trkpt>
      <trkpt lat="43.427943" lon="2.457207">
        <ele>1141.5</ele>
        <time>2014-04-10T16:31:50Z</time>
      </trkpt>
      <trkpt lat="43.427924" lon="2.457342">
        <ele>1141.8</ele>
        <time>2014-04-10T16:31:59Z</time>
      </trkpt>
      <trkpt lat="43.427913" lon="2.457471">
        <ele>1142.5</ele>
        <time>2014-04-10T16:32:07Z</time>
      </trkpt>
      <trkpt lat="43.427895" lon="2.457589">
        <ele>1143.0</ele>
        <time>2014-04-10T16:32:14Z</time>
      </trkpt>
      <trkpt lat="43.427883" lon="2.457708">
        <ele>1143.8</ele>
        <time>2014-04-10T16:32:21Z</time>
      </trkpt>
      <trkpt lat="43.427872" lon="2.457823">
        <ele>1144.3</ele>
        <time>2014-04-10T16:32:28Z</time>
      </trkpt>
      <trkpt lat="43.427855" lon="2.457931">
        <ele>1145.2</ele>
        <time>2014-04-10T16:32:35Z</time>
      </trkpt>
      <trkpt lat="43.427844" lon="2.458067">
        <ele>1145.9</ele>
        <time>2014-04-10T16:32:43Z</time>
      </trkpt>
      <trkpt lat="43.427838" lon="2.458198">
        <ele>1146.9</ele>
        <time>2014-04-10T16:32:51Z</time>
      </trkpt>
      <trkpt lat="43.427832" lon="2.458337">
        <ele>1148.3</ele>
        <time>2014-04-10T16:33:00Z</time>
      </trkpt>
      <trkpt lat="43.427831" lon="2.458462">
        <ele>1149.5</ele>
        <time>2014-04-10T16:33:08Z</time>
      </trkpt>
      <trkpt lat="43.427821" lon="2.458594">
        <ele>1150.9</ele>
        <time>2014-04-10T16:33:17Z</time>
      </trkpt>
      <trkpt lat="43.427809" lon="2.458727">
        <ele>1151.9</ele>
        <time>2014-04-10T16:33:26Z</time>
      </trkpt>
      <trkpt lat="43.427768" lon="2.458831">
        <ele>1153.0</ele>
        <time>2014-04-10T16:33:57Z</time>
      </trkpt>
      <trkpt lat="43.427722" lon="2.458939">
        <ele>1153.8</ele>
        <time>2014-04-10T16:34:05Z</time>
      </trkpt>
      <trkpt lat="43.427676" lon="2.459052">
        <ele>1155.3</ele>
        <time>2014-04-10T16:34:14Z</time>
      </trkpt>
      <trkpt lat="43.427628" lon="2.459164">
        <ele>1156.5</ele>
        <time>2014-04-10T16:34:22Z</time>
      </trkpt>
      <trkpt lat="43.427571" lon="2.459261">
        <ele>1156.8</ele>
        <time>2014-04-10T16:34:29Z</time>
      </trkpt>
      <trkpt lat="43.427509" lon="2.459346">
        <ele>1157.2</ele>
        <time>2014-04-10T16:34:36Z</time>
      </trkpt>
      <trkpt lat="43.427447" lon="2.459449">
        <ele>1158.0</ele>
        <time>2014-04-10T16:34:44Z</time>
      </trkpt>
      <trkpt lat="43.427383" lon="2.459548">
        <ele>1158.4</ele>
        <time>2014-04-10T16:34:52Z</time>
      </trkpt>
      <trkpt lat="43.427317" lon="2.459653">
        <ele>1159.4</ele>
        <time>2014-04-10T16:35:00Z</time>
      </trkpt>
      <trkpt lat="43.427246" lon="2.459751">
        <ele>1160.2</ele>
        <time>2014-04-10T16:35:08Z</time>
      </trkpt>
      <trkpt lat="43.427180" lon="2.459836">
        <ele>1160.9</ele>
        <time>2014-04-10T16:35:15Z</time>
      </trkpt>
      <trkpt lat="43.427104" lon="2.459907">
        <ele>1161.8</ele>
        <time>2014-04-10T16:35:23Z</time>
      </trkpt>
      <trkpt lat="43.427035" lon="2.459992">
        <ele>1162.8</ele>
        <time>2014-04-10T16:35:31Z</time>
      </trkpt>
      <trkpt lat="43.426978" lon="2.460079">
        <ele>1163.4</ele>
        <time>2014-04-10T16:35:39Z</time>
      </trkpt>
      <trkpt lat="43.426887" lon="2.460121">
        <ele>1163.7</ele>
        <time>2014-04-10T16:35:47Z</time>
      </trkpt>
      <trkpt lat="43.426793" lon="2.460140">
        <ele>1164.3</ele>
        <time>2014-04-10T16:35:55Z</time>
      </trkpt>
      <trkpt lat="43.426692" lon="2.460153">
        <ele>1164.9</ele>
        <time>2014-04-10T16:36:04Z</time>
      </trkpt>
      <trkpt lat="43.426646" lon="2.460251">
        <ele>1165.5</ele>
        <time>2014-04-10T16:36:13Z</time>
      </trkpt>
      <trkpt lat="43.426561" lon="2.460332">
        <ele>1166.0</ele>
        <time>2014-04-10T16:36:21Z</time>
      </trkpt>
      <trkpt lat="43.426521" lon="2.460451">
        <ele>1168.1</ele>
        <time>2014-04-10T16:37:11Z</time>
      </trkpt>
      <trkpt lat="43.426461" lon="2.460564">
        <ele>1168.9</ele>
        <time>2014-04-10T16:37:20Z</time>
      </trkpt>
      <trkpt lat="43.426380" lon="2.460620">
        <ele>1169.8</ele>
        <time>2014-04-10T16:37:27Z</time>
      </trkpt>
      <trkpt lat="43.426291" lon="2.460656">
        <ele>1170.6</ele>
        <time>2014-04-10T16:37:34Z</time>
      </trkpt>
      <trkpt lat="43.426201" lon="2.460671">
        <ele>1171.0</ele>
        <time>2014-04-10T16:37:41Z</time>
      </trkpt>
      <trkpt lat="43.426100" lon="2.460693">
        <ele>1171.2</ele>
        <time>2014-04-10T16:37:49Z</time>
      </trkpt>
      <trkpt lat="43.426001" lon="2.460702">
        <ele>1171.7</ele>
        <time>2014-04-10T16:37:57Z</time>
      </trkpt>
      <trkpt lat="43.425915" lon="2.460741">
        <ele>1172.2</ele>
        <time>2014-04-10T16:38:04Z</time>
      </trkpt>
      <trkpt lat="43.425835" lon="2.460793">
        <ele>1172.8</ele>
        <time>2014-04-10T16:38:11Z</time>
      </trkpt>
      <trkpt lat="43.425737" lon="2.460839">
        <ele>1173.7</ele>
        <time>2014-04-10T16:38:19Z</time>
      </trkpt>
      <trkpt lat="43.425650" lon="2.460876">
        <ele>1174.1</ele>
        <time>2014-04-10T16:38:26Z</time>
      </trkpt>
      <trkpt lat="43.425555" lon="2.460931">
        <ele>1174.6</ele>
        <time>2014-04-10T16:38:34Z</time>
      </trkpt>
      <trkpt lat="43.425467" lon="2.460964">
        <ele>1175.0</ele>
        <time>2014-04-10T16:38:41Z</time>
      </trkpt>
      <trkpt lat="43.425374" lon="2.461005">
        <ele>1175.8</ele>
        <time>2014-04-10T16:38:49Z</time>
      </trkpt>
      <trkpt lat="43.425288" lon="2.461057">
        <ele>1176.3</ele>
        <time>2014-04-10T16:38:57Z</time>
      </trkpt>
      <trkpt lat="43.425214" lon="2.461161">
        <ele>1178.0</ele>
        <time>2014-04-10T16:39:39Z</time>
      </trkpt>
      <trkpt lat="43.425131" lon="2.461217">
        <ele>1178.8</ele>
        <time>2014-04-10T16:39:47Z</time>
      </trkpt>
      <trkpt lat="43.425050" lon="2.461303">
        <ele>1180.2</ele>
        <time>2014-04-10T16:39:55Z</time>
      </trkpt>
      <trkpt lat="43.424978" lon="2.461390">
        <ele>1181.6</ele>
        <time>2014-04-10T16:40:04Z</time>
      </trkpt>
      <trkpt lat="43.424883" lon="2.461457">
        <ele>1182.2</ele>
        <time>2014-04-10T16:40:11Z</time>
      </trkpt>
      <trkpt lat="43.424807" lon="2.461515">
        <ele>1182.9</ele>
        <time>2014-04-10T16:40:17Z</time>
      </trkpt>
      <trkpt lat="43.424732" lon="2.461586">
        <ele>1184.1</ele>
        <time>2014-04-10T16:40:24Z</time>
      </trkpt>
      <trkpt lat="43.424662" lon="2.461686">
        <ele>1185.2</ele>
        <time>2014-04-10T16:40:32Z</time>
      </trkpt>
      <trkpt lat="43.424606" lon="2.461788">
        <ele>1186.3</ele>
        <time>2014-04-10T16:40:40Z</time>
      </trkpt>
      <trkpt lat="43.424536" lon="2.461867">
        <ele>1187.6</ele>
        <time>2014-04-10T16:40:48Z</time>
      </trkpt>
      <trkpt lat="43.424476" lon="2.461957">
        <ele>1188.5</ele>
        <time>2014-04-10T16:40:55Z</time>
      </trkpt>
      <trkpt lat="43.424408" lon="2.462040">
        <ele>1189.1</ele>
        <time>2014-04-10T16:41:02Z</time>
      </trkpt>
      <trkpt lat="43.424332" lon="2.462134">
        <ele>1189.9</ele>
        <time>2014-04-10T16:41:10Z</time>
      </trkpt>
      <trkpt lat="43.424257" lon="2.462220">
        <ele>1190.7</ele>
        <time>2014-04-10T16:41:18Z</time>
      </trkpt>
      <trkpt lat="43.424226" lon="2.462250">
        <ele>1191.7</ele>
        <time>2014-04-10T16:42:38Z</time>
      </trkpt>
      <trkpt lat="43.424155" lon="2.462280">
        <ele>1191.7</ele>
        <time>2014-04-10T16:42:57Z</time>
      </trkpt>
      <trkpt lat="43.424069" lon="2.462336">
        <ele>1191.4</ele>
        <time>2014-04-10T16:43:05Z</time>
      </trkpt>
      <trkpt lat="43.423983" lon="2.462413">
        <ele>1191.3</ele>
        <time>2014-04-10T16:43:12Z</time>
      </trkpt>
      <trkpt lat="43.423897" lon="2.462459">
        <ele>1191.0</ele>
        <time>2014-04-10T16:43:19Z</time>
      </trkpt>
      <trkpt lat="43.423840" lon="2.462545">
        <ele>1190.7</ele>
        <time>2014-04-10T16:43:27Z</time>
      </trkpt>
      <trkpt lat="43.423853" lon="2.462657">
        <ele>1190.4</ele>
        <time>2014-04-10T16:44:10Z</time>
      </trkpt>
      <trkpt lat="43.423868" lon="2.462796">
        <ele>1190.5</ele>
        <time>2014-04-10T16:44:18Z</time>
      </trkpt>
      <trkpt lat="43.423894" lon="2.462918">
        <ele>1190.6</ele>
        <time>2014-04-10T16:44:26Z</time>
      </trkpt>
      <trkpt lat="43.423930" lon="2.463045">
        <ele>1191.0</ele>
        <time>2014-04-10T16:44:35Z</time>
      </trkpt>
      <trkpt lat="43.423956" lon="2.463104">
        <ele>1191.4</ele>
        <time>2014-04-10T16:45:53Z</time>
      </trkpt>
      <trkpt lat="43.423879" lon="2.463030">
        <ele>1191.1</ele>
        <time>2014-04-10T16:46:02Z</time>
      </trkpt>
      <trkpt lat="43.423773" lon="2.463019">
        <ele>1190.0</ele>
        <time>2014-04-10T16:46:12Z</time>
      </trkpt>
      <trkpt lat="43.423712" lon="2.463111">
        <ele>1188.8</ele>
        <time>2014-04-10T16:46:19Z</time>
      </trkpt>
      <trkpt lat="43.423639" lon="2.463218">
        <ele>1187.1</ele>
        <time>2014-04-10T16:46:27Z</time>
      </trkpt>
      <trkpt lat="43.423586" lon="2.463307">
        <ele>1186.0</ele>
        <time>2014-04-10T16:46:33Z</time>
      </trkpt>
      <trkpt lat="43.423506" lon="2.463397">
        <ele>1184.3</ele>
        <time>2014-04-10T16:46:42Z</time>
      </trkpt>
      <trkpt lat="43.423461" lon="2.463508">
        <ele>1183.0</ele>
        <time>2014-04-10T16:46:50Z</time>
      </trkpt>
      <trkpt lat="43.423444" lon="2.463630">
        <ele>1181.8</ele>
        <time>2014-04-10T16:46:58Z</time>
      </trkpt>
      <trkpt lat="43.423409" lon="2.463742">
        <ele>1181.0</ele>
        <time>2014-04-10T16:47:04Z</time>
      </trkpt>
      <trkpt lat="43.423351" lon="2.463815">
        <ele>1179.5</ele>
        <time>2014-04-10T16:47:10Z</time>
      </trkpt>
      <trkpt lat="43.423297" lon="2.463909">
        <ele>1178.6</ele>
        <time>2014-04-10T16:47:15Z</time>
      </trkpt>
      <trkpt lat="43.423229" lon="2.463967">
        <ele>1176.9</ele>
        <time>2014-04-10T16:47:22Z</time>
      </trkpt>
      <trkpt lat="43.423144" lon="2.464029">
        <ele>1174.3</ele>
        <time>2014-04-10T16:47:33Z</time>
      </trkpt>
      <trkpt lat="43.423065" lon="2.464098">
        <ele>1172.3</ele>
        <time>2014-04-10T16:47:40Z</time>
      </trkpt>
      <trkpt lat="43.422977" lon="2.464159">
        <ele>1170.6</ele>
        <time>2014-04-10T16:47:46Z</time>
      </trkpt>
      <trkpt lat="43.422906" lon="2.464213">
        <ele>1168.8</ele>
        <time>2014-04-10T16:47:53Z</time>
      </trkpt>
      <trkpt lat="43.422820" lon="2.464266">
        <ele>1166.5</ele>
        <time>2014-04-10T16:48:01Z</time>
      </trkpt>
      <trkpt lat="43.422739" lon="2.464301">
        <ele>1164.7</ele>
        <time>2014-04-10T16:48:08Z</time>
      </trkpt>
      <trkpt lat="43.422652" lon="2.464358">
        <ele>1162.3</ele>
        <time>2014-04-10T16:48:15Z</time>
      </trkpt>
      <trkpt lat="43.422563" lon="2.464398">
        <ele>1159.5</ele>
        <time>2014-04-10T16:48:23Z</time>
      </trkpt>
      <trkpt lat="43.422474" lon="2.464440">
        <ele>1157.3</ele>
        <time>2014-04-10T16:48:31Z</time>
      </trkpt>
      <trkpt lat="43.422386" lon="2.464479">
        <ele>1155.1</ele>
        <time>2014-04-10T16:48:38Z</time>
      </trkpt>
      <trkpt lat="43.422291" lon="2.464502">
        <ele>1152.6</ele>
        <time>2014-04-10T16:48:45Z</time>
      </trkpt>
      <trkpt lat="43.422188" lon="2.464483">
        <ele>1149.9</ele>
        <time>2014-04-10T16:48:53Z</time>
      </trkpt>
      <trkpt lat="43.422094" lon="2.464480">
        <ele>1148.3</ele>
        <time>2014-04-10T16:49:00Z</time>
      </trkpt>
      <trkpt lat="43.421995" lon="2.464492">
        <ele>1146.5</ele>
        <time>2014-04-10T16:49:07Z</time>
      </trkpt>
      <trkpt lat="43.421907" lon="2.464467">
        <ele>1145.0</ele>
        <time>2014-04-10T16:49:14Z</time>
      </trkpt>
      <trkpt lat="43.421829" lon="2.464420">
        <ele>1143.5</ele>
        <time>2014-04-10T16:49:20Z</time>
      </trkpt>
      <trkpt lat="43.421729" lon="2.464372">
        <ele>1141.3</ele>
        <time>2014-04-10T16:49:30Z</time>
      </trkpt>
      <trkpt lat="43.421636" lon="2.464337">
        <ele>1139.5</ele>
        <time>2014-04-10T16:49:38Z</time>
      </trkpt>
      <trkpt lat="43.421546" lon="2.464301">
        <ele>1137.8</ele>
        <time>2014-04-10T16:49:46Z</time>
      </trkpt>
      <trkpt lat="43.421456" lon="2.464259">
        <ele>1136.4</ele>
        <time>2014-04-10T16:49:53Z</time>
      </trkpt>
      <trkpt lat="43.421365" lon="2.464185">
        <ele>1134.3</ele>
        <time>2014-04-10T16:50:06Z</time>
      </trkpt>
      <trkpt lat="43.421282" lon="2.464120">
        <ele>1132.7</ele>
        <time>2014-04-10T16:50:14Z</time>
      </trkpt>
      <trkpt lat="43.421181" lon="2.464071">
        <ele>1130.6</ele>
        <time>2014-04-10T16:50:22Z</time>
      </trkpt>
      <trkpt lat="43.421091" lon="2.464027">
        <ele>1129.2</ele>
        <time>2014-04-10T16:50:28Z</time>
      </trkpt>
      <trkpt lat="43.421023" lon="2.463943">
        <ele>1127.0</ele>
        <time>2014-04-10T16:50:38Z</time>
      </trkpt>
      <trkpt lat="43.420929" lon="2.463888">
        <ele>1125.4</ele>
        <time>2014-04-10T16:50:45Z</time>
      </trkpt>
      <trkpt lat="43.420849" lon="2.463809">
        <ele>1123.3</ele>
        <time>2014-04-10T16:50:54Z</time>
      </trkpt>
      <trkpt lat="43.420829" lon="2.463674">
        <ele>1122.0</ele>
        <time>2014-04-10T16:51:01Z</time>
      </trkpt>
      <trkpt lat="43.420774" lon="2.463549">
        <ele>1121.3</ele>
        <time>2014-04-10T16:51:07Z</time>
      </trkpt>
      <trkpt lat="43.420717" lon="2.463472">
        <ele>1119.6</ele>
        <time>2014-04-10T16:51:14Z</time>
      </trkpt>
      <trkpt lat="43.420628" lon="2.463382">
        <ele>1117.9</ele>
        <time>2014-04-10T16:51:23Z</time>
      </trkpt>
      <trkpt lat="43.420553" lon="2.463308">
        <ele>1116.5</ele>
        <time>2014-04-10T16:51:29Z</time>
      </trkpt>
      <trkpt lat="43.420496" lon="2.463217">
        <ele>1115.2</ele>
        <time>2014-04-10T16:51:35Z</time>
      </trkpt>
      <trkpt lat="43.420445" lon="2.463109">
        <ele>1114.0</ele>
        <time>2014-04-10T16:51:41Z</time>
      </trkpt>
      <trkpt lat="43.420388" lon="2.463022">
        <ele>1112.8</ele>
        <time>2014-04-10T16:51:48Z</time>
      </trkpt>
      <trkpt lat="43.420310" lon="2.462938">
        <ele>1111.3</ele>
        <time>2014-04-10T16:51:56Z</time>
      </trkpt>
      <trkpt lat="43.420213" lon="2.462849">
        <ele>1110.2</ele>
        <time>2014-04-10T16:52:05Z</time>
      </trkpt>
      <trkpt lat="43.420126" lon="2.462739">
        <ele>1109.6</ele>
        <time>2014-04-10T16:52:12Z</time>
      </trkpt>
      <trkpt lat="43.420052" lon="2.462652">
        <ele>1109.0</ele>
        <time>2014-04-10T16:52:21Z</time>
      </trkpt>
      <trkpt lat="43.419975" lon="2.462568">
        <ele>1108.2</ele>
        <time>2014-04-10T16:52:29Z</time>
      </trkpt>
      <trkpt lat="43.419903" lon="2.462473">
        <ele>1107.8</ele>
        <time>2014-04-10T16:52:35Z</time>
      </trkpt>
      <trkpt lat="43.419827" lon="2.462404">
        <ele>1107.5</ele>
        <time>2014-04-10T16:52:42Z</time>
      </trkpt>
      <trkpt lat="43.419753" lon="2.462332">
        <ele>1107.2</ele>
        <time>2014-04-10T16:52:49Z</time>
      </trkpt>
      <trkpt lat="43.419684" lon="2.462236">
        <ele>1107.1</ele>
        <time>2014-04-10T16:52:56Z</time>
      </trkpt>
      <trkpt lat="43.419632" lon="2.462170">
        <ele>1107.0</ele>
        <time>2014-04-10T16:53:01Z</time>
      </trkpt>
      <trkpt lat="43.419570" lon="2.462107">
        <ele>1106.9</ele>
        <time>2014-04-10T16:53:06Z</time>
      </trkpt>
      <trkpt lat="43.419493" lon="2.462047">
        <ele>1106.2</ele>
        <time>2014-04-10T16:53:15Z</time>
      </trkpt>
      <trkpt lat="43.419417" lon="2.461967">
        <ele>1105.8</ele>
        <time>2014-04-10T16:53:22Z</time>
      </trkpt>
      <trkpt lat="43.419351" lon="2.461890">
        <ele>1105.2</ele>
        <time>2014-04-10T16:53:28Z</time>
      </trkpt>
      <trkpt lat="43.419297" lon="2.461809">
        <ele>1104.4</ele>
        <time>2014-04-10T16:53:35Z</time>
      </trkpt>
      <trkpt lat="43.419195" lon="2.461755">
        <ele>1103.3</ele>
        <time>2014-04-10T16:53:43Z</time>
      </trkpt>
      <trkpt lat="43.419139" lon="2.461655">
        <ele>1102.4</ele>
        <time>2014-04-10T16:53:50Z</time>
      </trkpt>
      <trkpt lat="43.419012" lon="2.461575">
        <ele>1100.6</ele>
        <time>2014-04-10T16:54:01Z</time>
      </trkpt>
      <trkpt lat="43.418918" lon="2.461513">
        <ele>1099.5</ele>
        <time>2014-04-10T16:54:07Z</time>
      </trkpt>
      <trkpt lat="43.418853" lon="2.461422">
        <ele>1098.3</ele>
        <time>2014-04-10T16:54:13Z</time>
      </trkpt>
      <trkpt lat="43.418757" lon="2.461351">
        <ele>1097.1</ele>
        <time>2014-04-10T16:54:21Z</time>
      </trkpt>
      <trkpt lat="43.418683" lon="2.461284">
        <ele>1096.3</ele>
        <time>2014-04-10T16:54:28Z</time>
      </trkpt>
      <trkpt lat="43.418602" lon="2.461222">
        <ele>1093.9</ele>
        <time>2014-04-10T16:54:36Z</time>
      </trkpt>
      <trkpt lat="43.418515" lon="2.461175">
        <ele>1092.2</ele>
        <time>2014-04-10T16:54:45Z</time>
      </trkpt>
      <trkpt lat="43.418484" lon="2.461071">
        <ele>1090.2</ele>
        <time>2014-04-10T16:54:55Z</time>
      </trkpt>
      <trkpt lat="43.418445" lon="2.460946">
        <ele>1089.2</ele>
        <time>2014-04-10T16:55:04Z</time>
      </trkpt>
      <trkpt lat="43.418374" lon="2.460847">
        <ele>1087.8</ele>
        <time>2014-04-10T16:55:13Z</time>
      </trkpt>
      <trkpt lat="43.418272" lon="2.460760">
        <ele>1086.0</ele>
        <time>2014-04-10T16:55:23Z</time>
      </trkpt>
      <trkpt lat="43.418203" lon="2.460673">
        <ele>1084.4</ele>
        <time>2014-04-10T16:55:31Z</time>
      </trkpt>
      <trkpt lat="43.418103" lon="2.460569">
        <ele>1082.8</ele>
        <time>2014-04-10T16:55:41Z</time>
      </trkpt>
      <trkpt lat="43.418016" lon="2.460462">
        <ele>1081.1</ele>
        <time>2014-04-10T16:55:48Z</time>
      </trkpt>
      <trkpt lat="43.417929" lon="2.460370">
        <ele>1079.9</ele>
        <time>2014-04-10T16:55:54Z</time>
      </trkpt>
      <trkpt lat="43.417855" lon="2.460284">
        <ele>1078.0</ele>
        <time>2014-04-10T16:56:03Z</time>
      </trkpt>
      <trkpt lat="43.417763" lon="2.460188">
        <ele>1076.0</ele>
        <time>2014-04-10T16:56:11Z</time>
      </trkpt>
      <trkpt lat="43.417679" lon="2.460107">
        <ele>1074.4</ele>
        <time>2014-04-10T16:56:18Z</time>
      </trkpt>
      <trkpt lat="43.417614" lon="2.460009">
        <ele>1073.0</ele>
        <time>2014-04-10T16:56:25Z</time>
      </trkpt>
      <trkpt lat="43.417529" lon="2.459917">
        <ele>1071.0</ele>
        <time>2014-04-10T16:56:34Z</time>
      </trkpt>
      <trkpt lat="43.417459" lon="2.459814">
        <ele>1069.2</ele>
        <time>2014-04-10T16:56:42Z</time>
      </trkpt>
      <trkpt lat="43.417376" lon="2.459733">
        <ele>1067.7</ele>
        <time>2014-04-10T16:56:49Z</time>
      </trkpt>
      <trkpt lat="43.417297" lon="2.459652">
        <ele>1065.9</ele>
        <time>2014-04-10T16:56:58Z</time>
      </trkpt>
      <trkpt lat="43.417227" lon="2.459545">
        <ele>1064.2</ele>
        <time>2014-04-10T16:57:06Z</time>
      </trkpt>
      <trkpt lat="43.417141" lon="2.459485">
        <ele>1062.1</ele>
        <time>2014-04-10T16:57:15Z</time>
      </trkpt>
      <trkpt lat="43.417062" lon="2.459402">
        <ele>1060.7</ele>
        <time>2014-04-10T16:57:22Z</time>
      </trkpt>
      <trkpt lat="43.416970" lon="2.459317">
        <ele>1058.9</ele>
        <time>2014-04-10T16:57:31Z</time>
      </trkpt>
      <trkpt lat="43.416887" lon="2.459231">
        <ele>1057.1</ele>
        <time>2014-04-10T16:57:40Z</time>
      </trkpt>
      <trkpt lat="43.416789" lon="2.459153">
        <ele>1055.9</ele>
        <time>2014-04-10T16:57:47Z</time>
      </trkpt>
      <trkpt lat="43.416709" lon="2.459084">
        <ele>1054.2</ele>
        <time>2014-04-10T16:57:55Z</time>
      </trkpt>
      <trkpt lat="43.416635" lon="2.458977">
        <ele>1052.9</ele>
        <time>2014-04-10T16:58:02Z</time>
      </trkpt>
      <trkpt lat="43.416544" lon="2.458889">
        <ele>1051.8</ele>
        <time>2014-04-10T16:58:11Z</time>
      </trkpt>
      <trkpt lat="43.416454" lon="2.458805">
        <ele>1050.4</ele>
        <time>2014-04-10T16:58:19Z</time>
      </trkpt>
      <trkpt lat="43.416376" lon="2.458728">
        <ele>1049.3</ele>
        <time>2014-04-10T16:58:26Z</time>
      </trkpt>
      <trkpt lat="43.416307" lon="2.458647">
        <ele>1048.6</ele>
        <time>2014-04-10T16:58:32Z</time>
      </trkpt>
      <trkpt lat="43.416220" lon="2.458555">
        <ele>1047.5</ele>
        <time>2014-04-10T16:58:42Z</time>
      </trkpt>
      <trkpt lat="43.416116" lon="2.458462">
        <ele>1046.8</ele>
        <time>2014-04-10T16:58:50Z</time>
      </trkpt>
      <trkpt lat="43.416033" lon="2.458381">
        <ele>1046.4</ele>
        <time>2014-04-10T16:58:58Z</time>
      </trkpt>
      <trkpt lat="43.415950" lon="2.458296">
        <ele>1046.2</ele>
        <time>2014-04-10T16:59:06Z</time>
      </trkpt>
      <trkpt lat="43.415858" lon="2.458220">
        <ele>1045.9</ele>
        <time>2014-04-10T16:59:13Z</time>
      </trkpt>
      <trkpt lat="43.415791" lon="2.458130">
        <ele>1046.1</ele>
        <time>2014-04-10T16:59:41Z</time>
      </trkpt>
      <trkpt lat="43.415709" lon="2.458031">
        <ele>1046.0</ele>
        <time>2014-04-10T16:59:50Z</time>
      </trkpt>
      <trkpt lat="43.415620" lon="2.457923">
        <ele>1046.0</ele>
        <time>2014-04-10T16:59:58Z</time>
      </trkpt>
      <trkpt lat="43.415535" lon="2.457828">
        <ele>1046.0</ele>
        <time>2014-04-10T17:00:06Z</time>
      </trkpt>
      <trkpt lat="43.415456" lon="2.457745">
        <ele>1045.9</ele>
        <time>2014-04-10T17:00:14Z</time>
      </trkpt>
      <trkpt lat="43.415352" lon="2.457739">
        <ele>1046.4</ele>
        <time>2014-04-10T17:00:21Z</time>
      </trkpt>
      <trkpt lat="43.415276" lon="2.457841">
        <ele>1046.6</ele>
        <time>2014-04-10T17:00:28Z</time>
      </trkpt>
      <trkpt lat="43.415198" lon="2.457774">
        <ele>1046.8</ele>
        <time>2014-04-10T17:00:37Z</time>
      </trkpt>
      <trkpt lat="43.415174" lon="2.457627">
        <ele>1047.3</ele>
        <time>2014-04-10T17:00:45Z</time>
      </trkpt>
      <trkpt lat="43.415156" lon="2.457489">
        <ele>1047.9</ele>
        <time>2014-04-10T17:00:53Z</time>
      </trkpt>
      <trkpt lat="43.415096" lon="2.457379">
        <ele>1048.4</ele>
        <time>2014-04-10T17:01:01Z</time>
      </trkpt>
      <trkpt lat="43.415020" lon="2.457312">
        <ele>1048.2</ele>
        <time>2014-04-10T17:01:09Z</time>
      </trkpt>
      <trkpt lat="43.414975" lon="2.457213">
        <ele>1047.7</ele>
        <time>2014-04-10T17:01:19Z</time>
      </trkpt>
      <trkpt lat="43.414951" lon="2.457152">
        <ele>1047.7</ele>
        <time>2014-04-10T17:01:44Z</time>
      </trkpt>
      <trkpt lat="43.414915" lon="2.457090">
        <ele>1048.5</ele>
        <time>2014-04-10T17:02:31Z</time>
      </trkpt>
      <trkpt lat="43.414864" lon="2.456985">
        <ele>1047.6</ele>
        <time>2014-04-10T17:02:41Z</time>
      </trkpt>
      <trkpt lat="43.414759" lon="2.456980">
        <ele>1045.3</ele>
        <time>2014-04-10T17:02:51Z</time>
      </trkpt>
      <trkpt lat="43.414705" lon="2.457079">
        <ele>1044.0</ele>
        <time>2014-04-10T17:02:59Z</time>
      </trkpt>
      <trkpt lat="43.414677" lon="2.457189">
        <ele>1043.2</ele>
        <time>2014-04-10T17:03:07Z</time>
      </trkpt>
      <trkpt lat="43.414678" lon="2.457322">
        <ele>1042.4</ele>
        <time>2014-04-10T17:03:15Z</time>
      </trkpt>
      <trkpt lat="43.414695" lon="2.457468">
        <ele>1041.4</ele>
        <time>2014-04-10T17:03:26Z</time>
      </trkpt>
      <trkpt lat="43.414673" lon="2.457622">
        <ele>1040.4</ele>
        <time>2014-04-10T17:03:37Z</time>
      </trkpt>
      <trkpt lat="43.414561" lon="2.457693">
        <ele>1038.3</ele>
        <time>2014-04-10T17:03:49Z</time>
      </trkpt>
      <trkpt lat="43.414438" lon="2.457760">
        <ele>1035.5</ele>
        <time>2014-04-10T17:04:03Z</time>
      </trkpt>
      <trkpt lat="43.414328" lon="2.457729">
        <ele>1032.7</ele>
        <time>2014-04-10T17:04:14Z</time>
      </trkpt>
      <trkpt lat="43.414190" lon="2.457753">
        <ele>1029.1</ele>
        <time>2014-04-10T17:04:26Z</time>
      </trkpt>
      <trkpt lat="43.414097" lon="2.457717">
        <ele>1026.3</ele>
        <time>2014-04-10T17:04:37Z</time>
      </trkpt>
      <trkpt lat="43.414017" lon="2.457654">
        <ele>1023.0</ele>
        <time>2014-04-10T17:04:50Z</time>
      </trkpt>
      <trkpt lat="43.413935" lon="2.457555">
        <ele>1020.4</ele>
        <time>2014-04-10T17:05:00Z</time>
      </trkpt>
      <trkpt lat="43.413843" lon="2.457424">
        <ele>1016.8</ele>
        <time>2014-04-10T17:05:13Z</time>
      </trkpt>
      <trkpt lat="43.413762" lon="2.457299">
        <ele>1013.4</ele>
        <time>2014-04-10T17:05:26Z</time>
      </trkpt>
      <trkpt lat="43.413778" lon="2.457152">
        <ele>1011.4</ele>
        <time>2014-04-10T17:05:36Z</time>
      </trkpt>
      <trkpt lat="43.413701" lon="2.456993">
        <ele>1008.7</ele>
        <time>2014-04-10T17:05:51Z</time>
      </trkpt>
      <trkpt lat="43.413622" lon="2.456847">
        <ele>1005.3</ele>
        <time>2014-04-10T17:06:06Z</time>
      </trkpt>
      <trkpt lat="43.413515" lon="2.456649">
        <ele>1001.9</ele>
        <time>2014-04-10T17:06:21Z</time>
      </trkpt>
      <trkpt lat="43.413413" lon="2.456568">
        <ele>998.9</ele>
        <time>2014-04-10T17:06:33Z</time>
      </trkpt>
      <trkpt lat="43.413403" lon="2.456385">
        <ele>997.0</ele>
        <time>2014-04-10T17:06:43Z</time>
      </trkpt>
      <trkpt lat="43.413416" lon="2.456202">
        <ele>995.2</ele>
        <time>2014-04-10T17:06:54Z</time>
      </trkpt>
      <trkpt lat="43.413392" lon="2.456030">
        <ele>992.8</ele>
        <time>2014-04-10T17:07:08Z</time>
      </trkpt>
      <trkpt lat="43.413380" lon="2.455834">
        <ele>989.6</ele>
        <time>2014-04-10T17:07:21Z</time>
      </trkpt>
      <trkpt lat="43.413338" lon="2.455673">
        <ele>986.3</ele>
        <time>2014-04-10T17:07:36Z</time>
      </trkpt>
      <trkpt lat="43.413259" lon="2.455483">
        <ele>982.5</ele>
        <time>2014-04-10T17:07:49Z</time>
      </trkpt>
      <trkpt lat="43.413166" lon="2.455330">
        <ele>978.9</ele>
        <time>2014-04-10T17:08:02Z</time>
      </trkpt>
      <trkpt lat="43.413079" lon="2.455224">
        <ele>975.6</ele>
        <time>2014-04-10T17:08:14Z</time>
      </trkpt>
      <trkpt lat="43.412954" lon="2.455165">
        <ele>972.4</ele>
        <time>2014-04-10T17:08:26Z</time>
      </trkpt>
      <trkpt lat="43.412817" lon="2.455156">
        <ele>969.5</ele>
        <time>2014-04-10T17:08:39Z</time>
      </trkpt>
      <trkpt lat="43.412817" lon="2.455008">
        <ele>966.2</ele>
        <time>2014-04-10T17:08:52Z</time>
      </trkpt>
      <trkpt lat="43.412742" lon="2.454855">
        <ele>963.8</ele>
        <time>2014-04-10T17:09:03Z</time>
      </trkpt>
      <trkpt lat="43.412632" lon="2.454770">
        <ele>960.8</ele>
        <time>2014-04-10T17:09:15Z</time>
      </trkpt>
      <trkpt lat="43.412536" lon="2.454703">
        <ele>957.7</ele>
        <time>2014-04-10T17:09:27Z</time>
      </trkpt>
      <trkpt lat="43.412500" lon="2.454587">
        <ele>954.7</ele>
        <time>2014-04-10T17:09:39Z</time>
      </trkpt>
      <trkpt lat="43.412463" lon="2.454438">
        <ele>952.1</ele>
        <time>2014-04-10T17:09:48Z</time>
      </trkpt>
      <trkpt lat="43.412379" lon="2.454322">
        <ele>949.5</ele>
        <time>2014-04-10T17:09:58Z</time>
      </trkpt>
      <trkpt lat="43.412293" lon="2.454228">
        <ele>945.1</ele>
        <time>2014-04-10T17:10:13Z</time>
      </trkpt>
      <trkpt lat="43.412170" lon="2.454075">
        <ele>942.1</ele>
        <time>2014-04-10T17:10:25Z</time>
      </trkpt>
      <trkpt lat="43.412071" lon="2.454035">
        <ele>940.2</ele>
        <time>2014-04-10T17:10:32Z</time>
      </trkpt>
      <trkpt lat="43.411996" lon="2.453963">
        <ele>937.9</ele>
        <time>2014-04-10T17:10:42Z</time>
      </trkpt>
      <trkpt lat="43.411905" lon="2.453892">
        <ele>935.0</ele>
        <time>2014-04-10T17:10:53Z</time>
      </trkpt>
      <trkpt lat="43.411837" lon="2.453788">
        <ele>931.5</ele>
        <time>2014-04-10T17:11:02Z</time>
      </trkpt>
      <trkpt lat="43.411771" lon="2.453677">
        <ele>928.9</ele>
        <time>2014-04-10T17:11:12Z</time>
      </trkpt>
      <trkpt lat="43.411684" lon="2.453628">
        <ele>926.3</ele>
        <time>2014-04-10T17:11:20Z</time>
      </trkpt>
      <trkpt lat="43.411624" lon="2.453550">
        <ele>924.4</ele>
        <time>2014-04-10T17:11:27Z</time>
      </trkpt>
      <trkpt lat="43.411559" lon="2.453473">
        <ele>922.2</ele>
        <time>2014-04-10T17:11:34Z</time>
      </trkpt>
      <trkpt lat="43.411483" lon="2.453397">
        <ele>918.3</ele>
        <time>2014-04-10T17:11:45Z</time>
      </trkpt>
      <trkpt lat="43.411412" lon="2.453286">
        <ele>915.6</ele>
        <time>2014-04-10T17:11:54Z</time>
      </trkpt>
      <trkpt lat="43.411342" lon="2.453192">
        <ele>913.5</ele>
        <time>2014-04-10T17:12:02Z</time>
      </trkpt>
      <trkpt lat="43.411286" lon="2.453101">
        <ele>911.2</ele>
        <time>2014-04-10T17:12:10Z</time>
      </trkpt>
      <trkpt lat="43.411221" lon="2.453005">
        <ele>909.3</ele>
        <time>2014-04-10T17:12:18Z</time>
      </trkpt>
      <trkpt lat="43.411140" lon="2.452916">
        <ele>906.7</ele>
        <time>2014-04-10T17:12:28Z</time>
      </trkpt>
      <trkpt lat="43.411057" lon="2.452831">
        <ele>903.3</ele>
        <time>2014-04-10T17:12:39Z</time>
      </trkpt>
      <trkpt lat="43.410990" lon="2.452733">
        <ele>901.1</ele>
        <time>2014-04-10T17:12:48Z</time>
      </trkpt>
      <trkpt lat="43.410942" lon="2.452626">
        <ele>898.2</ele>
        <time>2014-04-10T17:12:57Z</time>
      </trkpt>
      <trkpt lat="43.410888" lon="2.452518">
        <ele>895.5</ele>
        <time>2014-04-10T17:13:08Z</time>
      </trkpt>
      <trkpt lat="43.410811" lon="2.452413">
        <ele>892.1</ele>
        <time>2014-04-10T17:13:20Z</time>
      </trkpt>
      <trkpt lat="43.410730" lon="2.452318">
        <ele>889.9</ele>
        <time>2014-04-10T17:13:28Z</time>
      </trkpt>
      <trkpt lat="43.410670" lon="2.452217">
        <ele>887.9</ele>
        <time>2014-04-10T17:13:36Z</time>
      </trkpt>
      <trkpt lat="43.410588" lon="2.452131">
        <ele>885.5</ele>
        <time>2014-04-10T17:13:45Z</time>
      </trkpt>
      <trkpt lat="43.410514" lon="2.452037">
        <ele>882.5</ele>
        <time>2014-04-10T17:13:55Z</time>
      </trkpt>
      <trkpt lat="43.410449" lon="2.451942">
        <ele>879.6</ele>
        <time>2014-04-10T17:14:05Z</time>
      </trkpt>
      <trkpt lat="43.410376" lon="2.451828">
        <ele>877.0</ele>
        <time>2014-04-10T17:14:15Z</time>
      </trkpt>
      <trkpt lat="43.410329" lon="2.451714">
        <ele>875.2</ele>
        <time>2014-04-10T17:14:22Z</time>
      </trkpt>
      <trkpt lat="43.410315" lon="2.451585">
        <ele>873.0</ele>
        <time>2014-04-10T17:14:31Z</time>
      </trkpt>
      <trkpt lat="43.410318" lon="2.451467">
        <ele>871.1</ele>
        <time>2014-04-10T17:14:39Z</time>
      </trkpt>
      <trkpt lat="43.410316" lon="2.451332">
        <ele>869.2</ele>
        <time>2014-04-10T17:14:47Z</time>
      </trkpt>
      <trkpt lat="43.410344" lon="2.451205">
        <ele>867.2</ele>
        <time>2014-04-10T17:14:55Z</time>
      </trkpt>
      <trkpt lat="43.410376" lon="2.451068">
        <ele>865.8</ele>
        <time>2014-04-10T17:15:02Z</time>
      </trkpt>
      <trkpt lat="43.410386" lon="2.450944">
        <ele>864.1</ele>
        <time>2014-04-10T17:15:11Z</time>
      </trkpt>
      <trkpt lat="43.410421" lon="2.450843">
        <ele>862.6</ele>
        <time>2014-04-10T17:15:19Z</time>
      </trkpt>
      <trkpt lat="43.410456" lon="2.450721">
        <ele>860.8</ele>
        <time>2014-04-10T17:15:28Z</time>
      </trkpt>
      <trkpt lat="43.410517" lon="2.450638">
        <ele>859.5</ele>
        <time>2014-04-10T17:15:35Z</time>
      </trkpt>
      <trkpt lat="43.410558" lon="2.450518">
        <ele>857.8</ele>
        <time>2014-04-10T17:15:44Z</time>
      </trkpt>
      <trkpt lat="43.410611" lon="2.450381">
        <ele>856.6</ele>
        <time>2014-04-10T17:15:53Z</time>
      </trkpt>
      <trkpt lat="43.410675" lon="2.450235">
        <ele>855.0</ele>
        <time>2014-04-10T17:16:01Z</time>
      </trkpt>
      <trkpt lat="43.410716" lon="2.450136">
        <ele>853.8</ele>
        <time>2014-04-10T17:16:06Z</time>
      </trkpt>
      <trkpt lat="43.410765" lon="2.450002">
        <ele>852.1</ele>
        <time>2014-04-10T17:16:16Z</time>
      </trkpt>
      <trkpt lat="43.410810" lon="2.449884">
        <ele>850.6</ele>
        <time>2014-04-10T17:16:26Z</time>
      </trkpt>
      <trkpt lat="43.410866" lon="2.449767">
        <ele>849.2</ele>
        <time>2014-04-10T17:16:35Z</time>
      </trkpt>
      <trkpt lat="43.410933" lon="2.449668">
        <ele>847.7</ele>
        <time>2014-04-10T17:16:44Z</time>
      </trkpt>
      <trkpt lat="43.411013" lon="2.449590">
        <ele>846.5</ele>
        <time>2014-04-10T17:16:53Z</time>
      </trkpt>
      <trkpt lat="43.411100" lon="2.449496">
        <ele>846.1</ele>
        <time>2014-04-10T17:17:03Z</time>
      </trkpt>
      <trkpt lat="43.411162" lon="2.449389">
        <ele>845.0</ele>
        <time>2014-04-10T17:17:12Z</time>
      </trkpt>
      <trkpt lat="43.411242" lon="2.449277">
        <ele>844.1</ele>
        <time>2014-04-10T17:17:22Z</time>
      </trkpt>
      <trkpt lat="43.411329" lon="2.449196">
        <ele>842.7</ele>
        <time>2014-04-10T17:17:33Z</time>
      </trkpt>
      <trkpt lat="43.411437" lon="2.449063">
        <ele>841.5</ele>
        <time>2014-04-10T17:17:46Z</time>
      </trkpt>
      <trkpt lat="43.411526" lon="2.448981">
        <ele>840.7</ele>
        <time>2014-04-10T17:17:53Z</time>
      </trkpt>
      <trkpt lat="43.411624" lon="2.448896">
        <ele>839.4</ele>
        <time>2014-04-10T17:18:05Z</time>
      </trkpt>
      <trkpt lat="43.411714" lon="2.448810">
        <ele>838.2</ele>
        <time>2014-04-10T17:18:16Z</time>
      </trkpt>
      <trkpt lat="43.411864" lon="2.448714">
        <ele>837.0</ele>
        <time>2014-04-10T17:18:28Z</time>
      </trkpt>
      <trkpt lat="43.411978" lon="2.448650">
        <ele>836.1</ele>
        <time>2014-04-10T17:18:37Z</time>
      </trkpt>
      <trkpt lat="43.412078" lon="2.448590">
        <ele>835.1</ele>
        <time>2014-04-10T17:18:48Z</time>
      </trkpt>
      <trkpt lat="43.412193" lon="2.448481">
        <ele>833.8</ele>
        <time>2014-04-10T17:19:00Z</time>
      </trkpt>
      <trkpt lat="43.412281" lon="2.448395">
        <ele>832.9</ele>
        <time>2014-04-10T17:19:09Z</time>
      </trkpt>
      <trkpt lat="43.412399" lon="2.448321">
        <ele>832.5</ele>
        <time>2014-04-10T17:19:23Z</time>
      </trkpt>
      <trkpt lat="43.412532" lon="2.448152">
        <ele>831.8</ele>
        <time>2014-04-10T17:19:38Z</time>
      </trkpt>
      <trkpt lat="43.412475" lon="2.447973">
        <ele>829.9</ele>
        <time>2014-04-10T17:19:54Z</time>
      </trkpt>
      <trkpt lat="43.412404" lon="2.447842">
        <ele>828.8</ele>
        <time>2014-04-10T17:20:05Z</time>
      </trkpt>
      <trkpt lat="43.412257" lon="2.447787">
        <ele>829.1</ele>
        <time>2014-04-10T17:20:18Z</time>
      </trkpt>
      <trkpt lat="43.412106" lon="2.447750">
        <ele>829.6</ele>
        <time>2014-04-10T17:20:29Z</time>
      </trkpt>
      <trkpt lat="43.411999" lon="2.447700">
        <ele>829.9</ele>
        <time>2014-04-10T17:20:40Z</time>
      </trkpt>
      <trkpt lat="43.411868" lon="2.447664">
        <ele>830.5</ele>
        <time>2014-04-10T17:20:51Z</time>
      </trkpt>
      <trkpt lat="43.411730" lon="2.447604">
        <ele>831.7</ele>
        <time>2014-04-10T17:21:02Z</time>
      </trkpt>
      <trkpt lat="43.411613" lon="2.447587">
        <ele>831.9</ele>
        <time>2014-04-10T17:21:13Z</time>
      </trkpt>
      <trkpt lat="43.411506" lon="2.447556">
        <ele>831.8</ele>
        <time>2014-04-10T17:21:22Z</time>
      </trkpt>
      <trkpt lat="43.411424" lon="2.447537">
        <ele>831.3</ele>
        <time>2014-04-10T17:21:31Z</time>
      </trkpt>
      <trkpt lat="43.411263" lon="2.447544">
        <ele>831.1</ele>
        <time>2014-04-10T17:21:43Z</time>
      </trkpt>
      <trkpt lat="43.411128" lon="2.447518">
        <ele>831.0</ele>
        <time>2014-04-10T17:21:51Z</time>
      </trkpt>
      <trkpt lat="43.410983" lon="2.447443">
        <ele>830.7</ele>
        <time>2014-04-10T17:22:02Z</time>
      </trkpt>
      <trkpt lat="43.410858" lon="2.447379">
        <ele>830.4</ele>
        <time>2014-04-10T17:22:11Z</time>
      </trkpt>
      <trkpt lat="43.410724" lon="2.447391">
        <ele>829.6</ele>
        <time>2014-04-10T17:22:20Z</time>
      </trkpt>
      <trkpt lat="43.410615" lon="2.447372">
        <ele>829.3</ele>
        <time>2014-04-10T17:22:26Z</time>
      </trkpt>
      <trkpt lat="43.410521" lon="2.447356">
        <ele>828.7</ele>
        <time>2014-04-10T17:22:33Z</time>
      </trkpt>
      <trkpt lat="43.410384" lon="2.447329">
        <ele>828.2</ele>
        <time>2014-04-10T17:22:45Z</time>
      </trkpt>
      <trkpt lat="43.410322" lon="2.447304">
        <ele>827.1</ele>
        <time>2014-04-10T17:23:18Z</time>
      </trkpt>
      <trkpt lat="43.410294" lon="2.447206">
        <ele>829.0</ele>
        <time>2014-04-10T17:23:31Z</time>
      </trkpt>
      <trkpt lat="43.410237" lon="2.447114">
        <ele>831.4</ele>
        <time>2014-04-10T17:23:46Z</time>
      </trkpt>
      <trkpt lat="43.410087" lon="2.447051">
        <ele>832.5</ele>
        <time>2014-04-10T17:23:57Z</time>
      </trkpt>
      <trkpt lat="43.409954" lon="2.447053">
        <ele>832.6</ele>
        <time>2014-04-10T17:24:07Z</time>
      </trkpt>
      <trkpt lat="43.409825" lon="2.447051">
        <ele>832.4</ele>
        <time>2014-04-10T17:24:17Z</time>
      </trkpt>
      <trkpt lat="43.409716" lon="2.447037">
        <ele>832.2</ele>
        <time>2014-04-10T17:24:25Z</time>
      </trkpt>
      <trkpt lat="43.409590" lon="2.446987">
        <ele>831.7</ele>
        <time>2014-04-10T17:24:36Z</time>
      </trkpt>
      <trkpt lat="43.409477" lon="2.446938">
        <ele>831.3</ele>
        <time>2014-04-10T17:24:42Z</time>
      </trkpt>
      <trkpt lat="43.409382" lon="2.446892">
        <ele>831.2</ele>
        <time>2014-04-10T17:24:49Z</time>
      </trkpt>
      <trkpt lat="43.409287" lon="2.446827">
        <ele>831.1</ele>
        <time>2014-04-10T17:24:58Z</time>
      </trkpt>
      <trkpt lat="43.409197" lon="2.446768">
        <ele>830.9</ele>
        <time>2014-04-10T17:25:06Z</time>
      </trkpt>
      <trkpt lat="43.409101" lon="2.446724">
        <ele>830.3</ele>
        <time>2014-04-10T17:25:14Z</time>
      </trkpt>
      <trkpt lat="43.409014" lon="2.446640">
        <ele>830.0</ele>
        <time>2014-04-10T17:25:22Z</time>
      </trkpt>
      <trkpt lat="43.408951" lon="2.446510">
        <ele>829.9</ele>
        <time>2014-04-10T17:25:30Z</time>
      </trkpt>
      <trkpt lat="43.408903" lon="2.446392">
        <ele>830.0</ele>
        <time>2014-04-10T17:25:37Z</time>
      </trkpt>
      <trkpt lat="43.408853" lon="2.446255">
        <ele>830.6</ele>
        <time>2014-04-10T17:25:45Z</time>
      </trkpt>
      <trkpt lat="43.408819" lon="2.446151">
        <ele>831.2</ele>
        <time>2014-04-10T17:25:53Z</time>
      </trkpt>
      <trkpt lat="43.408783" lon="2.446082">
        <ele>831.7</ele>
        <time>2014-04-10T17:26:03Z</time>
      </trkpt>
      <trkpt lat="43.408784" lon="2.446002">
        <ele>831.8</ele>
        <time>2014-04-10T17:26:22Z</time>
      </trkpt>
      <trkpt lat="43.408783" lon="2.445876">
        <ele>832.4</ele>
        <time>2014-04-10T17:26:32Z</time>
      </trkpt>
      <trkpt lat="43.408730" lon="2.445739">
        <ele>832.4</ele>
        <time>2014-04-10T17:26:42Z</time>
      </trkpt>
      <trkpt lat="43.408638" lon="2.445750">
        <ele>831.9</ele>
        <time>2014-04-10T17:26:53Z</time>
      </trkpt>
      <trkpt lat="43.408584" lon="2.445657">
        <ele>829.8</ele>
        <time>2014-04-10T17:27:27Z</time>
      </trkpt>
      <trkpt lat="43.408479" lon="2.445728">
        <ele>829.5</ele>
        <time>2014-04-10T17:27:36Z</time>
      </trkpt>
      <trkpt lat="43.408404" lon="2.445751">
        <ele>826.9</ele>
        <time>2014-04-10T17:27:54Z</time>
      </trkpt>
      <trkpt lat="43.408323" lon="2.445825">
        <ele>824.3</ele>
        <time>2014-04-10T17:28:10Z</time>
      </trkpt>
      <trkpt lat="43.408222" lon="2.445865">
        <ele>822.3</ele>
        <time>2014-04-10T17:28:20Z</time>
      </trkpt>
      <trkpt lat="43.408117" lon="2.445908">
        <ele>820.8</ele>
        <time>2014-04-10T17:28:30Z</time>
      </trkpt>
      <trkpt lat="43.407993" lon="2.445929">
        <ele>818.8</ele>
        <time>2014-04-10T17:28:42Z</time>
      </trkpt>
      <trkpt lat="43.407885" lon="2.445967">
        <ele>817.2</ele>
        <time>2014-04-10T17:28:51Z</time>
      </trkpt>
      <trkpt lat="43.407808" lon="2.446012">
        <ele>815.0</ele>
        <time>2014-04-10T17:29:03Z</time>
      </trkpt>
      <trkpt lat="43.407688" lon="2.445967">
        <ele>813.0</ele>
        <time>2014-04-10T17:29:15Z</time>
      </trkpt>
      <trkpt lat="43.407575" lon="2.446008">
        <ele>810.3</ele>
        <time>2014-04-10T17:29:27Z</time>
      </trkpt>
      <trkpt lat="43.407473" lon="2.446089">
        <ele>809.5</ele>
        <time>2014-04-10T17:29:37Z</time>
      </trkpt>
      <trkpt lat="43.407359" lon="2.446133">
        <ele>809.0</ele>
        <time>2014-04-10T17:29:50Z</time>
      </trkpt>
      <trkpt lat="43.407350" lon="2.446143">
        <ele>808.9</ele>
        <time>2014-04-10T17:29:54Z</time>
      </trkpt>
      <trkpt lat="43.407353" lon="2.446152">
        <ele>808.8</ele>
        <time>2014-04-10T17:29:58Z</time>
      </trkpt>
      <trkpt lat="43.407358" lon="2.446158">
        <ele>808.6</ele>
        <time>2014-04-10T17:30:03Z</time>
      </trkpt>
    </trkseg>
  </trk>
</gpx>

